<?xml version="1.0" encoding="UTF-8" standalone="no" ?>
<gpx xmlns="http://www.topografix.com/GPX/1/1" xmlns:xsi="http://www.w3.org/2001/XMLSchema-instance" xsi:schemaLocation="http://www.topografix.com/GPX/1/1 http://www.topografix.com/GPX/1/1/gpx.xsd" version="1.1" creator="VisuGPX - https://www.visugpx.com">
  <metadata>
    <name>Tour de l'Étang d'Ingril et les Salins de Frontignan</name>
  </metadata>
  <wpt lat="43.44423" lon="3.75836">
    <ele>1</ele>
    <name><![CDATA[Pont Mobile]]></name>
  </wpt>
  <wpt lat="43.44422" lon="3.75929">
    <ele>1</ele>
    <name><![CDATA[Chemin piétonnier]]></name>
  </wpt>
  <wpt lat="43.43784" lon="3.76141">
    <ele>1</ele>
    <name><![CDATA[Rond-point des Étangs]]></name>
  </wpt>
  <wpt lat="43.43576" lon="3.76358">
    <ele>1</ele>
    <name><![CDATA[Piste cyclo/piétons]]></name>
  </wpt>
  <wpt lat="43.43496" lon="3.77426">
    <ele>1</ele>
    <name><![CDATA[Port de Frontignan]]></name>
  </wpt>
  <wpt lat="43.46075" lon="3.81974">
    <ele>1</ele>
    <name><![CDATA[Passerelle vers la Méditerranée]]></name>
  </wpt>
  <wpt lat="43.46683" lon="3.81424">
    <ele>1</ele>
    <name><![CDATA[Entrée d'un parking ]]></name>
  </wpt>
  <wpt lat="43.46462" lon="3.80758">
    <ele>3</ele>
    <name><![CDATA[Bifurcation]]></name>
  </wpt>
  <wpt lat="43.46068" lon="3.78372">
    <ele>1</ele>
    <name><![CDATA[Bifurcation]]></name>
  </wpt>
  <wpt lat="43.46066" lon="3.78178">
    <ele>1</ele>
    <name><![CDATA[Bord des salins]]></name>
  </wpt>
  <wpt lat="43.46175" lon="3.77904">
    <ele>1</ele>
    <name><![CDATA[À gauche au carrefour]]></name>
  </wpt>
  <wpt lat="43.45925" lon="3.77028">
    <ele>1</ele>
    <name><![CDATA[Tout droit]]></name>
  </wpt>
  <wpt lat="43.46164" lon="3.76826">
    <ele>1</ele>
    <name><![CDATA[Passage sous la D612]]></name>
  </wpt>
  <wpt lat="43.44547" lon="3.75921">
    <ele>1</ele>
    <name><![CDATA[Passage sous voie ferrée]]></name>
  </wpt>
  <trk>
    <name><![CDATA[Tour de l'Étang d'Ingril et les Salins de Frontignan]]></name>
    <trkseg>
      <trkpt lat="43.44492" lon="3.75856">
        <ele>1</ele>
        <time>2021-11-27T11:30:19+01:00</time>
      </trkpt>
      <trkpt lat="43.44479" lon="3.75845">
        <ele>1</ele>
        <time>2021-11-27T11:30:41+01:00</time>
      </trkpt>
      <trkpt lat="43.4446" lon="3.75844">
        <ele>1</ele>
        <time>2021-11-27T11:31:00+01:00</time>
      </trkpt>
      <trkpt lat="43.44441" lon="3.75845">
        <ele>1</ele>
        <time>2021-11-27T11:31:17+01:00</time>
      </trkpt>
      <trkpt lat="43.44423" lon="3.75836">
        <ele>1</ele>
        <time>2021-11-27T11:31:37+01:00</time>
      </trkpt>
      <trkpt lat="43.44406" lon="3.75836">
        <ele>1</ele>
        <time>2021-11-27T11:32:17+01:00</time>
      </trkpt>
      <trkpt lat="43.44401" lon="3.75858">
        <ele>1</ele>
        <time>2021-11-27T11:32:54+01:00</time>
      </trkpt>
      <trkpt lat="43.4441" lon="3.75881">
        <ele>2.2</ele>
        <time>2021-11-27T11:33:14+01:00</time>
      </trkpt>
      <trkpt lat="43.44415" lon="3.75905">
        <ele>1</ele>
        <time>2021-11-27T11:33:31+01:00</time>
      </trkpt>
      <trkpt lat="43.44422" lon="3.75929">
        <ele>1</ele>
        <time>2021-11-27T11:33:46+01:00</time>
      </trkpt>
      <trkpt lat="43.44403" lon="3.75923">
        <ele>1</ele>
        <time>2021-11-27T11:34:11+01:00</time>
      </trkpt>
      <trkpt lat="43.44384" lon="3.7592">
        <ele>1</ele>
        <time>2021-11-27T11:34:29+01:00</time>
      </trkpt>
      <trkpt lat="43.44365" lon="3.75918">
        <ele>1</ele>
        <time>2021-11-27T11:34:47+01:00</time>
      </trkpt>
      <trkpt lat="43.44346" lon="3.75917">
        <ele>1</ele>
        <time>2021-11-27T11:35:07+01:00</time>
      </trkpt>
      <trkpt lat="43.44327" lon="3.7591">
        <ele>1</ele>
        <time>2021-11-27T11:35:29+01:00</time>
      </trkpt>
      <trkpt lat="43.44309" lon="3.75906">
        <ele>1</ele>
        <time>2021-11-27T11:35:47+01:00</time>
      </trkpt>
      <trkpt lat="43.44291" lon="3.75901">
        <ele>1</ele>
        <time>2021-11-27T11:36:06+01:00</time>
      </trkpt>
      <trkpt lat="43.44271" lon="3.75898">
        <ele>1</ele>
        <time>2021-11-27T11:36:24+01:00</time>
      </trkpt>
      <trkpt lat="43.44252" lon="3.75895">
        <ele>1</ele>
        <time>2021-11-27T11:36:38+01:00</time>
      </trkpt>
      <trkpt lat="43.44232" lon="3.75892">
        <ele>1</ele>
        <time>2021-11-27T11:36:54+01:00</time>
      </trkpt>
      <trkpt lat="43.44213" lon="3.75887">
        <ele>1</ele>
        <time>2021-11-27T11:37:08+01:00</time>
      </trkpt>
      <trkpt lat="43.44193" lon="3.75888">
        <ele>1</ele>
        <time>2021-11-27T11:37:23+01:00</time>
      </trkpt>
      <trkpt lat="43.44175" lon="3.75898">
        <ele>1</ele>
        <time>2021-11-27T11:37:41+01:00</time>
      </trkpt>
      <trkpt lat="43.44156" lon="3.75905">
        <ele>1</ele>
        <time>2021-11-27T11:37:58+01:00</time>
      </trkpt>
      <trkpt lat="43.44136" lon="3.75909">
        <ele>1</ele>
        <time>2021-11-27T11:38:16+01:00</time>
      </trkpt>
      <trkpt lat="43.44117" lon="3.75903">
        <ele>1</ele>
        <time>2021-11-27T11:38:32+01:00</time>
      </trkpt>
      <trkpt lat="43.44099" lon="3.75911">
        <ele>1</ele>
        <time>2021-11-27T11:38:47+01:00</time>
      </trkpt>
      <trkpt lat="43.44083" lon="3.75922">
        <ele>1</ele>
        <time>2021-11-27T11:39:02+01:00</time>
      </trkpt>
      <trkpt lat="43.44064" lon="3.75929">
        <ele>1</ele>
        <time>2021-11-27T11:39:17+01:00</time>
      </trkpt>
      <trkpt lat="43.44045" lon="3.75932">
        <ele>1</ele>
        <time>2021-11-27T11:39:35+01:00</time>
      </trkpt>
      <trkpt lat="43.44028" lon="3.75946">
        <ele>1</ele>
        <time>2021-11-27T11:39:57+01:00</time>
      </trkpt>
      <trkpt lat="43.44011" lon="3.75956">
        <ele>1</ele>
        <time>2021-11-27T11:40:13+01:00</time>
      </trkpt>
      <trkpt lat="43.43993" lon="3.75966">
        <ele>1</ele>
        <time>2021-11-27T11:40:30+01:00</time>
      </trkpt>
      <trkpt lat="43.43975" lon="3.75974">
        <ele>1</ele>
        <time>2021-11-27T11:40:45+01:00</time>
      </trkpt>
      <trkpt lat="43.43957" lon="3.75982">
        <ele>1</ele>
        <time>2021-11-27T11:41:01+01:00</time>
      </trkpt>
      <trkpt lat="43.43938" lon="3.75987">
        <ele>1</ele>
        <time>2021-11-27T11:41:17+01:00</time>
      </trkpt>
      <trkpt lat="43.4392" lon="3.75997">
        <ele>1</ele>
        <time>2021-11-27T11:41:33+01:00</time>
      </trkpt>
      <trkpt lat="43.43901" lon="3.76006">
        <ele>1</ele>
        <time>2021-11-27T11:41:49+01:00</time>
      </trkpt>
      <trkpt lat="43.43882" lon="3.76013">
        <ele>1</ele>
        <time>2021-11-27T11:42:05+01:00</time>
      </trkpt>
      <trkpt lat="43.43864" lon="3.76022">
        <ele>1</ele>
        <time>2021-11-27T11:42:21+01:00</time>
      </trkpt>
      <trkpt lat="43.43846" lon="3.76032">
        <ele>1</ele>
        <time>2021-11-27T11:42:38+01:00</time>
      </trkpt>
      <trkpt lat="43.43828" lon="3.7604">
        <ele>1</ele>
        <time>2021-11-27T11:42:54+01:00</time>
      </trkpt>
      <trkpt lat="43.4381" lon="3.76052">
        <ele>1</ele>
        <time>2021-11-27T11:43:11+01:00</time>
      </trkpt>
      <trkpt lat="43.43796" lon="3.7607">
        <ele>1</ele>
        <time>2021-11-27T11:43:28+01:00</time>
      </trkpt>
      <trkpt lat="43.43795" lon="3.76096">
        <ele>1</ele>
        <time>2021-11-27T11:43:44+01:00</time>
      </trkpt>
      <trkpt lat="43.43793" lon="3.76119">
        <ele>1</ele>
        <time>2021-11-27T11:44:05+01:00</time>
      </trkpt>
      <trkpt lat="43.43784" lon="3.76141">
        <ele>1</ele>
        <time>2021-11-27T11:44:22+01:00</time>
      </trkpt>
      <trkpt lat="43.43774" lon="3.76163">
        <ele>1</ele>
        <time>2021-11-27T11:44:41+01:00</time>
      </trkpt>
      <trkpt lat="43.43755" lon="3.76165">
        <ele>1</ele>
        <time>2021-11-27T11:45:01+01:00</time>
      </trkpt>
      <trkpt lat="43.43735" lon="3.76168">
        <ele>6.8</ele>
        <time>2021-11-27T11:45:15+01:00</time>
      </trkpt>
      <trkpt lat="43.4372" lon="3.76182">
        <ele>4</ele>
        <time>2021-11-27T11:45:42+01:00</time>
      </trkpt>
      <trkpt lat="43.43708" lon="3.76203">
        <ele>1.3</ele>
        <time>2021-11-27T11:45:58+01:00</time>
      </trkpt>
      <trkpt lat="43.43698" lon="3.76225">
        <ele>1</ele>
        <time>2021-11-27T11:46:16+01:00</time>
      </trkpt>
      <trkpt lat="43.43687" lon="3.76246">
        <ele>1</ele>
        <time>2021-11-27T11:46:31+01:00</time>
      </trkpt>
      <trkpt lat="43.43674" lon="3.76265">
        <ele>1</ele>
        <time>2021-11-27T11:46:47+01:00</time>
      </trkpt>
      <trkpt lat="43.43663" lon="3.76287">
        <ele>1</ele>
        <time>2021-11-27T11:47:03+01:00</time>
      </trkpt>
      <trkpt lat="43.43653" lon="3.76308">
        <ele>1</ele>
        <time>2021-11-27T11:47:21+01:00</time>
      </trkpt>
      <trkpt lat="43.4364" lon="3.76329">
        <ele>1</ele>
        <time>2021-11-27T11:47:37+01:00</time>
      </trkpt>
      <trkpt lat="43.43629" lon="3.76349">
        <ele>1</ele>
        <time>2021-11-27T11:47:52+01:00</time>
      </trkpt>
      <trkpt lat="43.43609" lon="3.76354">
        <ele>1</ele>
        <time>2021-11-27T11:48:12+01:00</time>
      </trkpt>
      <trkpt lat="43.43591" lon="3.76349">
        <ele>1</ele>
        <time>2021-11-27T11:48:30+01:00</time>
      </trkpt>
      <trkpt lat="43.43576" lon="3.76358">
        <ele>1</ele>
        <time>2021-11-27T11:48:47+01:00</time>
      </trkpt>
      <trkpt lat="43.43572" lon="3.76385">
        <ele>1</ele>
        <time>2021-11-27T11:49:05+01:00</time>
      </trkpt>
      <trkpt lat="43.4357" lon="3.76411">
        <ele>1</ele>
        <time>2021-11-27T11:49:21+01:00</time>
      </trkpt>
      <trkpt lat="43.43569" lon="3.76436">
        <ele>1</ele>
        <time>2021-11-27T11:49:38+01:00</time>
      </trkpt>
      <trkpt lat="43.43567" lon="3.76461">
        <ele>1</ele>
        <time>2021-11-27T11:49:58+01:00</time>
      </trkpt>
      <trkpt lat="43.43567" lon="3.76487">
        <ele>1</ele>
        <time>2021-11-27T11:50:21+01:00</time>
      </trkpt>
      <trkpt lat="43.4357" lon="3.76513">
        <ele>1</ele>
        <time>2021-11-27T11:50:42+01:00</time>
      </trkpt>
      <trkpt lat="43.43571" lon="3.7654">
        <ele>1</ele>
        <time>2021-11-27T11:51:01+01:00</time>
      </trkpt>
      <trkpt lat="43.43568" lon="3.76567">
        <ele>1</ele>
        <time>2021-11-27T11:51:17+01:00</time>
      </trkpt>
      <trkpt lat="43.43569" lon="3.76593">
        <ele>1</ele>
        <time>2021-11-27T11:51:33+01:00</time>
      </trkpt>
      <trkpt lat="43.43567" lon="3.7662">
        <ele>1</ele>
        <time>2021-11-27T11:51:51+01:00</time>
      </trkpt>
      <trkpt lat="43.43565" lon="3.76646">
        <ele>1</ele>
        <time>2021-11-27T11:52:07+01:00</time>
      </trkpt>
      <trkpt lat="43.43563" lon="3.76672">
        <ele>1</ele>
        <time>2021-11-27T11:52:31+01:00</time>
      </trkpt>
      <trkpt lat="43.43563" lon="3.76698">
        <ele>1</ele>
        <time>2021-11-27T11:52:49+01:00</time>
      </trkpt>
      <trkpt lat="43.43562" lon="3.76724">
        <ele>1</ele>
        <time>2021-11-27T11:53:06+01:00</time>
      </trkpt>
      <trkpt lat="43.43561" lon="3.76749">
        <ele>1</ele>
        <time>2021-11-27T11:53:24+01:00</time>
      </trkpt>
      <trkpt lat="43.4356" lon="3.76775">
        <ele>1</ele>
        <time>2021-11-27T11:53:42+01:00</time>
      </trkpt>
      <trkpt lat="43.43558" lon="3.76801">
        <ele>1</ele>
        <time>2021-11-27T11:53:59+01:00</time>
      </trkpt>
      <trkpt lat="43.43556" lon="3.76827">
        <ele>1</ele>
        <time>2021-11-27T11:54:16+01:00</time>
      </trkpt>
      <trkpt lat="43.43555" lon="3.76853">
        <ele>1</ele>
        <time>2021-11-27T11:54:32+01:00</time>
      </trkpt>
      <trkpt lat="43.43552" lon="3.76878">
        <ele>1</ele>
        <time>2021-11-27T11:54:48+01:00</time>
      </trkpt>
      <trkpt lat="43.4355" lon="3.76903">
        <ele>1</ele>
        <time>2021-11-27T11:55:06+01:00</time>
      </trkpt>
      <trkpt lat="43.43549" lon="3.7693">
        <ele>1</ele>
        <time>2021-11-27T11:55:24+01:00</time>
      </trkpt>
      <trkpt lat="43.43547" lon="3.76956">
        <ele>1</ele>
        <time>2021-11-27T11:55:40+01:00</time>
      </trkpt>
      <trkpt lat="43.43548" lon="3.76983">
        <ele>1</ele>
        <time>2021-11-27T11:55:57+01:00</time>
      </trkpt>
      <trkpt lat="43.43545" lon="3.77009">
        <ele>1</ele>
        <time>2021-11-27T11:56:13+01:00</time>
      </trkpt>
      <trkpt lat="43.43544" lon="3.77035">
        <ele>1</ele>
        <time>2021-11-27T11:56:30+01:00</time>
      </trkpt>
      <trkpt lat="43.43541" lon="3.77061">
        <ele>1</ele>
        <time>2021-11-27T11:56:48+01:00</time>
      </trkpt>
      <trkpt lat="43.43536" lon="3.77087">
        <ele>1</ele>
        <time>2021-11-27T11:57:05+01:00</time>
      </trkpt>
      <trkpt lat="43.43523" lon="3.77106">
        <ele>1</ele>
        <time>2021-11-27T11:57:26+01:00</time>
      </trkpt>
      <trkpt lat="43.43514" lon="3.77126">
        <ele>1</ele>
        <time>2021-11-27T11:57:44+01:00</time>
      </trkpt>
      <trkpt lat="43.43519" lon="3.77151">
        <ele>1</ele>
        <time>2021-11-27T11:58:07+01:00</time>
      </trkpt>
      <trkpt lat="43.43531" lon="3.77169">
        <ele>1</ele>
        <time>2021-11-27T11:58:26+01:00</time>
      </trkpt>
      <trkpt lat="43.43534" lon="3.77197">
        <ele>1</ele>
        <time>2021-11-27T11:58:42+01:00</time>
      </trkpt>
      <trkpt lat="43.43534" lon="3.77223">
        <ele>1</ele>
        <time>2021-11-27T11:58:57+01:00</time>
      </trkpt>
      <trkpt lat="43.43531" lon="3.77249">
        <ele>1</ele>
        <time>2021-11-27T11:59:14+01:00</time>
      </trkpt>
      <trkpt lat="43.43531" lon="3.77277">
        <ele>1</ele>
        <time>2021-11-27T11:59:31+01:00</time>
      </trkpt>
      <trkpt lat="43.43529" lon="3.77302">
        <ele>1</ele>
        <time>2021-11-27T11:59:48+01:00</time>
      </trkpt>
      <trkpt lat="43.43528" lon="3.77329">
        <ele>1</ele>
        <time>2021-11-27T12:00:06+01:00</time>
      </trkpt>
      <trkpt lat="43.43525" lon="3.77356">
        <ele>1</ele>
        <time>2021-11-27T12:00:24+01:00</time>
      </trkpt>
      <trkpt lat="43.43523" lon="3.77382">
        <ele>1</ele>
        <time>2021-11-27T12:00:42+01:00</time>
      </trkpt>
      <trkpt lat="43.43521" lon="3.77408">
        <ele>1</ele>
        <time>2021-11-27T12:00:59+01:00</time>
      </trkpt>
      <trkpt lat="43.43507" lon="3.77417">
        <ele>1</ele>
        <time>2021-11-27T12:01:21+01:00</time>
      </trkpt>
      <trkpt lat="43.43496" lon="3.77426">
        <ele>1</ele>
        <time>2021-11-27T12:02:12+01:00</time>
      </trkpt>
      <trkpt lat="43.43509" lon="3.77445">
        <ele>1</ele>
        <time>2021-11-27T12:02:31+01:00</time>
      </trkpt>
      <trkpt lat="43.43521" lon="3.77466">
        <ele>1</ele>
        <time>2021-11-27T12:02:50+01:00</time>
      </trkpt>
      <trkpt lat="43.43521" lon="3.77492">
        <ele>1</ele>
        <time>2021-11-27T12:03:06+01:00</time>
      </trkpt>
      <trkpt lat="43.43522" lon="3.77519">
        <ele>1</ele>
        <time>2021-11-27T12:03:23+01:00</time>
      </trkpt>
      <trkpt lat="43.43523" lon="3.77546">
        <ele>1</ele>
        <time>2021-11-27T12:03:42+01:00</time>
      </trkpt>
      <trkpt lat="43.43526" lon="3.77571">
        <ele>1</ele>
        <time>2021-11-27T12:04:01+01:00</time>
      </trkpt>
      <trkpt lat="43.43527" lon="3.77597">
        <ele>4.83</ele>
        <time>2021-11-27T12:04:23+01:00</time>
      </trkpt>
      <trkpt lat="43.43531" lon="3.77623">
        <ele>1</ele>
        <time>2021-11-27T12:05:06+01:00</time>
      </trkpt>
      <trkpt lat="43.43534" lon="3.7765">
        <ele>1</ele>
        <time>2021-11-27T12:05:24+01:00</time>
      </trkpt>
      <trkpt lat="43.43536" lon="3.77677">
        <ele>1</ele>
        <time>2021-11-27T12:05:41+01:00</time>
      </trkpt>
      <trkpt lat="43.43539" lon="3.77703">
        <ele>1</ele>
        <time>2021-11-27T12:05:58+01:00</time>
      </trkpt>
      <trkpt lat="43.43542" lon="3.77728">
        <ele>1</ele>
        <time>2021-11-27T12:06:14+01:00</time>
      </trkpt>
      <trkpt lat="43.43548" lon="3.77753">
        <ele>1</ele>
        <time>2021-11-27T12:06:32+01:00</time>
      </trkpt>
      <trkpt lat="43.43544" lon="3.77777">
        <ele>1</ele>
        <time>2021-11-27T12:06:47+01:00</time>
      </trkpt>
      <trkpt lat="43.43534" lon="3.77798">
        <ele>1</ele>
        <time>2021-11-27T12:07:01+01:00</time>
      </trkpt>
      <trkpt lat="43.43541" lon="3.77823">
        <ele>1</ele>
        <time>2021-11-27T12:07:17+01:00</time>
      </trkpt>
      <trkpt lat="43.43557" lon="3.77835">
        <ele>1</ele>
        <time>2021-11-27T12:07:35+01:00</time>
      </trkpt>
      <trkpt lat="43.4357" lon="3.77854">
        <ele>1</ele>
        <time>2021-11-27T12:07:51+01:00</time>
      </trkpt>
      <trkpt lat="43.43582" lon="3.77875">
        <ele>1</ele>
        <time>2021-11-27T12:08:08+01:00</time>
      </trkpt>
      <trkpt lat="43.43593" lon="3.77897">
        <ele>1</ele>
        <time>2021-11-27T12:08:24+01:00</time>
      </trkpt>
      <trkpt lat="43.43603" lon="3.77918">
        <ele>1</ele>
        <time>2021-11-27T12:08:40+01:00</time>
      </trkpt>
      <trkpt lat="43.43613" lon="3.77941">
        <ele>1</ele>
        <time>2021-11-27T12:08:55+01:00</time>
      </trkpt>
      <trkpt lat="43.43623" lon="3.77962">
        <ele>1</ele>
        <time>2021-11-27T12:09:09+01:00</time>
      </trkpt>
      <trkpt lat="43.43634" lon="3.77984">
        <ele>1</ele>
        <time>2021-11-27T12:09:25+01:00</time>
      </trkpt>
      <trkpt lat="43.43643" lon="3.78007">
        <ele>1</ele>
        <time>2021-11-27T12:09:41+01:00</time>
      </trkpt>
      <trkpt lat="43.43654" lon="3.78029">
        <ele>1</ele>
        <time>2021-11-27T12:09:58+01:00</time>
      </trkpt>
      <trkpt lat="43.43663" lon="3.78053">
        <ele>1</ele>
        <time>2021-11-27T12:10:51+01:00</time>
      </trkpt>
      <trkpt lat="43.43673" lon="3.78075">
        <ele>1</ele>
        <time>2021-11-27T12:11:06+01:00</time>
      </trkpt>
      <trkpt lat="43.43683" lon="3.78099">
        <ele>1</ele>
        <time>2021-11-27T12:11:22+01:00</time>
      </trkpt>
      <trkpt lat="43.43693" lon="3.78121">
        <ele>1</ele>
        <time>2021-11-27T12:11:37+01:00</time>
      </trkpt>
      <trkpt lat="43.43702" lon="3.78143">
        <ele>1</ele>
        <time>2021-11-27T12:11:52+01:00</time>
      </trkpt>
      <trkpt lat="43.43713" lon="3.78165">
        <ele>1</ele>
        <time>2021-11-27T12:12:08+01:00</time>
      </trkpt>
      <trkpt lat="43.43724" lon="3.78187">
        <ele>1</ele>
        <time>2021-11-27T12:12:24+01:00</time>
      </trkpt>
      <trkpt lat="43.43733" lon="3.7821">
        <ele>1</ele>
        <time>2021-11-27T12:12:40+01:00</time>
      </trkpt>
      <trkpt lat="43.43744" lon="3.78232">
        <ele>1</ele>
        <time>2021-11-27T12:12:56+01:00</time>
      </trkpt>
      <trkpt lat="43.43753" lon="3.78255">
        <ele>1</ele>
        <time>2021-11-27T12:13:12+01:00</time>
      </trkpt>
      <trkpt lat="43.43765" lon="3.78275">
        <ele>1</ele>
        <time>2021-11-27T12:13:28+01:00</time>
      </trkpt>
      <trkpt lat="43.43776" lon="3.78296">
        <ele>1</ele>
        <time>2021-11-27T12:13:49+01:00</time>
      </trkpt>
      <trkpt lat="43.43787" lon="3.78316">
        <ele>1</ele>
        <time>2021-11-27T12:14:04+01:00</time>
      </trkpt>
      <trkpt lat="43.43799" lon="3.78338">
        <ele>1</ele>
        <time>2021-11-27T12:14:19+01:00</time>
      </trkpt>
      <trkpt lat="43.43807" lon="3.78361">
        <ele>1</ele>
        <time>2021-11-27T12:14:38+01:00</time>
      </trkpt>
      <trkpt lat="43.43818" lon="3.78383">
        <ele>1</ele>
        <time>2021-11-27T12:14:54+01:00</time>
      </trkpt>
      <trkpt lat="43.43828" lon="3.78405">
        <ele>1</ele>
        <time>2021-11-27T12:15:23+01:00</time>
      </trkpt>
      <trkpt lat="43.43837" lon="3.78428">
        <ele>1</ele>
        <time>2021-11-27T12:15:48+01:00</time>
      </trkpt>
      <trkpt lat="43.43848" lon="3.78449">
        <ele>1</ele>
        <time>2021-11-27T12:16:06+01:00</time>
      </trkpt>
      <trkpt lat="43.43858" lon="3.78471">
        <ele>1</ele>
        <time>2021-11-27T12:16:24+01:00</time>
      </trkpt>
      <trkpt lat="43.43868" lon="3.78493">
        <ele>1</ele>
        <time>2021-11-27T12:16:43+01:00</time>
      </trkpt>
      <trkpt lat="43.43879" lon="3.78515">
        <ele>1</ele>
        <time>2021-11-27T12:17:04+01:00</time>
      </trkpt>
      <trkpt lat="43.43889" lon="3.78539">
        <ele>1</ele>
        <time>2021-11-27T12:17:21+01:00</time>
      </trkpt>
      <trkpt lat="43.439" lon="3.7856">
        <ele>1</ele>
        <time>2021-11-27T12:17:38+01:00</time>
      </trkpt>
      <trkpt lat="43.4391" lon="3.78583">
        <ele>1</ele>
        <time>2021-11-27T12:17:55+01:00</time>
      </trkpt>
      <trkpt lat="43.43921" lon="3.78605">
        <ele>1</ele>
        <time>2021-11-27T12:18:12+01:00</time>
      </trkpt>
      <trkpt lat="43.43931" lon="3.78626">
        <ele>1</ele>
        <time>2021-11-27T12:18:28+01:00</time>
      </trkpt>
      <trkpt lat="43.4394" lon="3.78648">
        <ele>1</ele>
        <time>2021-11-27T12:18:44+01:00</time>
      </trkpt>
      <trkpt lat="43.43951" lon="3.78669">
        <ele>1</ele>
        <time>2021-11-27T12:19:01+01:00</time>
      </trkpt>
      <trkpt lat="43.43961" lon="3.7869">
        <ele>1</ele>
        <time>2021-11-27T12:19:17+01:00</time>
      </trkpt>
      <trkpt lat="43.43971" lon="3.78714">
        <ele>1</ele>
        <time>2021-11-27T12:19:34+01:00</time>
      </trkpt>
      <trkpt lat="43.43981" lon="3.78736">
        <ele>1</ele>
        <time>2021-11-27T12:19:51+01:00</time>
      </trkpt>
      <trkpt lat="43.43991" lon="3.78758">
        <ele>1</ele>
        <time>2021-11-27T12:20:07+01:00</time>
      </trkpt>
      <trkpt lat="43.44002" lon="3.78779">
        <ele>1</ele>
        <time>2021-11-27T12:20:23+01:00</time>
      </trkpt>
      <trkpt lat="43.44012" lon="3.78803">
        <ele>1</ele>
        <time>2021-11-27T12:20:41+01:00</time>
      </trkpt>
      <trkpt lat="43.44023" lon="3.78825">
        <ele>1</ele>
        <time>2021-11-27T12:20:57+01:00</time>
      </trkpt>
      <trkpt lat="43.44033" lon="3.78848">
        <ele>1</ele>
        <time>2021-11-27T12:21:14+01:00</time>
      </trkpt>
      <trkpt lat="43.44044" lon="3.78869">
        <ele>1</ele>
        <time>2021-11-27T12:21:29+01:00</time>
      </trkpt>
      <trkpt lat="43.44054" lon="3.7889">
        <ele>1</ele>
        <time>2021-11-27T12:21:47+01:00</time>
      </trkpt>
      <trkpt lat="43.44064" lon="3.78912">
        <ele>1</ele>
        <time>2021-11-27T12:22:05+01:00</time>
      </trkpt>
      <trkpt lat="43.44074" lon="3.78935">
        <ele>1</ele>
        <time>2021-11-27T12:22:24+01:00</time>
      </trkpt>
      <trkpt lat="43.44084" lon="3.78958">
        <ele>1</ele>
        <time>2021-11-27T12:22:41+01:00</time>
      </trkpt>
      <trkpt lat="43.44093" lon="3.7898">
        <ele>1</ele>
        <time>2021-11-27T12:22:59+01:00</time>
      </trkpt>
      <trkpt lat="43.441" lon="3.79006">
        <ele>1</ele>
        <time>2021-11-27T12:23:18+01:00</time>
      </trkpt>
      <trkpt lat="43.44106" lon="3.7903">
        <ele>1</ele>
        <time>2021-11-27T12:23:50+01:00</time>
      </trkpt>
      <trkpt lat="43.44109" lon="3.79058">
        <ele>1</ele>
        <time>2021-11-27T12:24:07+01:00</time>
      </trkpt>
      <trkpt lat="43.44109" lon="3.79084">
        <ele>1</ele>
        <time>2021-11-27T12:24:22+01:00</time>
      </trkpt>
      <trkpt lat="43.44111" lon="3.7911">
        <ele>1</ele>
        <time>2021-11-27T12:24:38+01:00</time>
      </trkpt>
      <trkpt lat="43.44112" lon="3.79135">
        <ele>1</ele>
        <time>2021-11-27T12:24:54+01:00</time>
      </trkpt>
      <trkpt lat="43.44097" lon="3.79151">
        <ele>1</ele>
        <time>2021-11-27T12:25:11+01:00</time>
      </trkpt>
      <trkpt lat="43.44103" lon="3.79175">
        <ele>1</ele>
        <time>2021-11-27T12:25:27+01:00</time>
      </trkpt>
      <trkpt lat="43.44117" lon="3.79193">
        <ele>1</ele>
        <time>2021-11-27T12:25:44+01:00</time>
      </trkpt>
      <trkpt lat="43.4413" lon="3.7921">
        <ele>1</ele>
        <time>2021-11-27T12:26:01+01:00</time>
      </trkpt>
      <trkpt lat="43.44146" lon="3.79197">
        <ele>1</ele>
        <time>2021-11-27T12:26:31+01:00</time>
      </trkpt>
      <trkpt lat="43.4416" lon="3.79181">
        <ele>1</ele>
        <time>2021-11-27T12:26:48+01:00</time>
      </trkpt>
      <trkpt lat="43.44179" lon="3.7918">
        <ele>1</ele>
        <time>2021-11-27T12:27:03+01:00</time>
      </trkpt>
      <trkpt lat="43.44198" lon="3.79186">
        <ele>1</ele>
        <time>2021-11-27T12:27:18+01:00</time>
      </trkpt>
      <trkpt lat="43.44214" lon="3.79198">
        <ele>1</ele>
        <time>2021-11-27T12:27:34+01:00</time>
      </trkpt>
      <trkpt lat="43.44229" lon="3.79215">
        <ele>1</ele>
        <time>2021-11-27T12:27:50+01:00</time>
      </trkpt>
      <trkpt lat="43.44243" lon="3.79233">
        <ele>1</ele>
        <time>2021-11-27T12:28:04+01:00</time>
      </trkpt>
      <trkpt lat="43.44257" lon="3.79252">
        <ele>1</ele>
        <time>2021-11-27T12:28:20+01:00</time>
      </trkpt>
      <trkpt lat="43.44272" lon="3.79269">
        <ele>1</ele>
        <time>2021-11-27T12:28:35+01:00</time>
      </trkpt>
      <trkpt lat="43.44287" lon="3.79286">
        <ele>1</ele>
        <time>2021-11-27T12:28:52+01:00</time>
      </trkpt>
      <trkpt lat="43.44305" lon="3.79299">
        <ele>1</ele>
        <time>2021-11-27T12:29:08+01:00</time>
      </trkpt>
      <trkpt lat="43.4432" lon="3.79315">
        <ele>1</ele>
        <time>2021-11-27T12:29:24+01:00</time>
      </trkpt>
      <trkpt lat="43.44337" lon="3.79328">
        <ele>1</ele>
        <time>2021-11-27T12:29:41+01:00</time>
      </trkpt>
      <trkpt lat="43.44356" lon="3.79339">
        <ele>1</ele>
        <time>2021-11-27T12:29:57+01:00</time>
      </trkpt>
      <trkpt lat="43.44372" lon="3.79353">
        <ele>1</ele>
        <time>2021-11-27T12:30:13+01:00</time>
      </trkpt>
      <trkpt lat="43.44387" lon="3.79368">
        <ele>1</ele>
        <time>2021-11-27T12:30:29+01:00</time>
      </trkpt>
      <trkpt lat="43.44403" lon="3.7938">
        <ele>1</ele>
        <time>2021-11-27T12:30:44+01:00</time>
      </trkpt>
      <trkpt lat="43.4442" lon="3.79394">
        <ele>1</ele>
        <time>2021-11-27T12:31:00+01:00</time>
      </trkpt>
      <trkpt lat="43.44436" lon="3.79408">
        <ele>1</ele>
        <time>2021-11-27T12:31:23+01:00</time>
      </trkpt>
      <trkpt lat="43.44452" lon="3.7942">
        <ele>1</ele>
        <time>2021-11-27T12:32:07+01:00</time>
      </trkpt>
      <trkpt lat="43.44468" lon="3.79434">
        <ele>1</ele>
        <time>2021-11-27T12:32:24+01:00</time>
      </trkpt>
      <trkpt lat="43.44485" lon="3.79445">
        <ele>1</ele>
        <time>2021-11-27T12:32:37+01:00</time>
      </trkpt>
      <trkpt lat="43.44501" lon="3.79458">
        <ele>1</ele>
        <time>2021-11-27T12:32:51+01:00</time>
      </trkpt>
      <trkpt lat="43.44518" lon="3.79472">
        <ele>1</ele>
        <time>2021-11-27T12:33:07+01:00</time>
      </trkpt>
      <trkpt lat="43.44535" lon="3.79486">
        <ele>1</ele>
        <time>2021-11-27T12:33:27+01:00</time>
      </trkpt>
      <trkpt lat="43.44551" lon="3.795">
        <ele>1</ele>
        <time>2021-11-27T12:33:41+01:00</time>
      </trkpt>
      <trkpt lat="43.44568" lon="3.79513">
        <ele>1</ele>
        <time>2021-11-27T12:33:57+01:00</time>
      </trkpt>
      <trkpt lat="43.44584" lon="3.79529">
        <ele>1</ele>
        <time>2021-11-27T12:34:14+01:00</time>
      </trkpt>
      <trkpt lat="43.446" lon="3.79543">
        <ele>1</ele>
        <time>2021-11-27T12:34:29+01:00</time>
      </trkpt>
      <trkpt lat="43.44616" lon="3.79556">
        <ele>1</ele>
        <time>2021-11-27T12:34:42+01:00</time>
      </trkpt>
      <trkpt lat="43.44634" lon="3.7957">
        <ele>1</ele>
        <time>2021-11-27T12:34:57+01:00</time>
      </trkpt>
      <trkpt lat="43.4465" lon="3.79584">
        <ele>1</ele>
        <time>2021-11-27T12:35:13+01:00</time>
      </trkpt>
      <trkpt lat="43.44667" lon="3.79599">
        <ele>1</ele>
        <time>2021-11-27T12:35:29+01:00</time>
      </trkpt>
      <trkpt lat="43.44685" lon="3.79612">
        <ele>1</ele>
        <time>2021-11-27T12:35:43+01:00</time>
      </trkpt>
      <trkpt lat="43.44701" lon="3.79626">
        <ele>1</ele>
        <time>2021-11-27T12:35:57+01:00</time>
      </trkpt>
      <trkpt lat="43.44718" lon="3.79641">
        <ele>1</ele>
        <time>2021-11-27T12:36:12+01:00</time>
      </trkpt>
      <trkpt lat="43.44735" lon="3.79656">
        <ele>1</ele>
        <time>2021-11-27T12:36:27+01:00</time>
      </trkpt>
      <trkpt lat="43.44752" lon="3.7967">
        <ele>1</ele>
        <time>2021-11-27T12:36:57+01:00</time>
      </trkpt>
      <trkpt lat="43.44768" lon="3.79685">
        <ele>1</ele>
        <time>2021-11-27T12:37:14+01:00</time>
      </trkpt>
      <trkpt lat="43.44785" lon="3.79698">
        <ele>1</ele>
        <time>2021-11-27T12:37:29+01:00</time>
      </trkpt>
      <trkpt lat="43.448" lon="3.79713">
        <ele>1</ele>
        <time>2021-11-27T12:37:43+01:00</time>
      </trkpt>
      <trkpt lat="43.44816" lon="3.79728">
        <ele>1</ele>
        <time>2021-11-27T12:37:59+01:00</time>
      </trkpt>
      <trkpt lat="43.44832" lon="3.79742">
        <ele>1</ele>
        <time>2021-11-27T12:38:14+01:00</time>
      </trkpt>
      <trkpt lat="43.44847" lon="3.79758">
        <ele>1</ele>
        <time>2021-11-27T12:38:29+01:00</time>
      </trkpt>
      <trkpt lat="43.44863" lon="3.79773">
        <ele>1</ele>
        <time>2021-11-27T12:38:44+01:00</time>
      </trkpt>
      <trkpt lat="43.44878" lon="3.7979">
        <ele>1</ele>
        <time>2021-11-27T12:38:59+01:00</time>
      </trkpt>
      <trkpt lat="43.44892" lon="3.79807">
        <ele>1</ele>
        <time>2021-11-27T12:39:21+01:00</time>
      </trkpt>
      <trkpt lat="43.44906" lon="3.79825">
        <ele>1</ele>
        <time>2021-11-27T12:39:37+01:00</time>
      </trkpt>
      <trkpt lat="43.44919" lon="3.79845">
        <ele>1</ele>
        <time>2021-11-27T12:39:52+01:00</time>
      </trkpt>
      <trkpt lat="43.44932" lon="3.79866">
        <ele>1</ele>
        <time>2021-11-27T12:40:09+01:00</time>
      </trkpt>
      <trkpt lat="43.44945" lon="3.79887">
        <ele>1</ele>
        <time>2021-11-27T12:40:24+01:00</time>
      </trkpt>
      <trkpt lat="43.44956" lon="3.79908">
        <ele>1</ele>
        <time>2021-11-27T12:40:38+01:00</time>
      </trkpt>
      <trkpt lat="43.44967" lon="3.7993">
        <ele>1</ele>
        <time>2021-11-27T12:40:52+01:00</time>
      </trkpt>
      <trkpt lat="43.44977" lon="3.79952">
        <ele>1</ele>
        <time>2021-11-27T12:41:08+01:00</time>
      </trkpt>
      <trkpt lat="43.44987" lon="3.79974">
        <ele>1</ele>
        <time>2021-11-27T12:41:23+01:00</time>
      </trkpt>
      <trkpt lat="43.44998" lon="3.79997">
        <ele>1</ele>
        <time>2021-11-27T12:41:39+01:00</time>
      </trkpt>
      <trkpt lat="43.45009" lon="3.80018">
        <ele>1</ele>
        <time>2021-11-27T12:41:55+01:00</time>
      </trkpt>
      <trkpt lat="43.45019" lon="3.8004">
        <ele>1</ele>
        <time>2021-11-27T12:42:10+01:00</time>
      </trkpt>
      <trkpt lat="43.45028" lon="3.80062">
        <ele>1</ele>
        <time>2021-11-27T12:42:25+01:00</time>
      </trkpt>
      <trkpt lat="43.45039" lon="3.80085">
        <ele>1</ele>
        <time>2021-11-27T12:42:42+01:00</time>
      </trkpt>
      <trkpt lat="43.45049" lon="3.80108">
        <ele>1</ele>
        <time>2021-11-27T12:42:58+01:00</time>
      </trkpt>
      <trkpt lat="43.45059" lon="3.80131">
        <ele>1</ele>
        <time>2021-11-27T12:43:23+01:00</time>
      </trkpt>
      <trkpt lat="43.4507" lon="3.80154">
        <ele>1</ele>
        <time>2021-11-27T12:43:47+01:00</time>
      </trkpt>
      <trkpt lat="43.45082" lon="3.80175">
        <ele>1</ele>
        <time>2021-11-27T12:44:21+01:00</time>
      </trkpt>
      <trkpt lat="43.45094" lon="3.80197">
        <ele>1</ele>
        <time>2021-11-27T12:44:35+01:00</time>
      </trkpt>
      <trkpt lat="43.45104" lon="3.8022">
        <ele>1</ele>
        <time>2021-11-27T12:44:49+01:00</time>
      </trkpt>
      <trkpt lat="43.45113" lon="3.80242">
        <ele>1</ele>
        <time>2021-11-27T12:45:03+01:00</time>
      </trkpt>
      <trkpt lat="43.45123" lon="3.80265">
        <ele>1</ele>
        <time>2021-11-27T12:45:19+01:00</time>
      </trkpt>
      <trkpt lat="43.45135" lon="3.80286">
        <ele>1</ele>
        <time>2021-11-27T12:45:33+01:00</time>
      </trkpt>
      <trkpt lat="43.45145" lon="3.80309">
        <ele>1</ele>
        <time>2021-11-27T12:45:49+01:00</time>
      </trkpt>
      <trkpt lat="43.45155" lon="3.80333">
        <ele>1</ele>
        <time>2021-11-27T12:46:06+01:00</time>
      </trkpt>
      <trkpt lat="43.45165" lon="3.80355">
        <ele>1</ele>
        <time>2021-11-27T12:46:22+01:00</time>
      </trkpt>
      <trkpt lat="43.45175" lon="3.80377">
        <ele>1</ele>
        <time>2021-11-27T12:46:48+01:00</time>
      </trkpt>
      <trkpt lat="43.45184" lon="3.804">
        <ele>1</ele>
        <time>2021-11-27T12:47:17+01:00</time>
      </trkpt>
      <trkpt lat="43.45195" lon="3.8042">
        <ele>1</ele>
        <time>2021-11-27T12:47:32+01:00</time>
      </trkpt>
      <trkpt lat="43.45206" lon="3.80442">
        <ele>1</ele>
        <time>2021-11-27T12:47:48+01:00</time>
      </trkpt>
      <trkpt lat="43.45217" lon="3.80464">
        <ele>1</ele>
        <time>2021-11-27T12:48:04+01:00</time>
      </trkpt>
      <trkpt lat="43.45226" lon="3.80488">
        <ele>1</ele>
        <time>2021-11-27T12:48:19+01:00</time>
      </trkpt>
      <trkpt lat="43.45238" lon="3.80509">
        <ele>1</ele>
        <time>2021-11-27T12:48:34+01:00</time>
      </trkpt>
      <trkpt lat="43.45248" lon="3.80533">
        <ele>1</ele>
        <time>2021-11-27T12:48:50+01:00</time>
      </trkpt>
      <trkpt lat="43.45258" lon="3.80556">
        <ele>1</ele>
        <time>2021-11-27T12:49:06+01:00</time>
      </trkpt>
      <trkpt lat="43.45266" lon="3.80578">
        <ele>1</ele>
        <time>2021-11-27T12:49:22+01:00</time>
      </trkpt>
      <trkpt lat="43.45276" lon="3.80601">
        <ele>1</ele>
        <time>2021-11-27T12:49:38+01:00</time>
      </trkpt>
      <trkpt lat="43.45287" lon="3.80625">
        <ele>1</ele>
        <time>2021-11-27T12:49:54+01:00</time>
      </trkpt>
      <trkpt lat="43.45299" lon="3.80645">
        <ele>1</ele>
        <time>2021-11-27T12:50:07+01:00</time>
      </trkpt>
      <trkpt lat="43.45311" lon="3.80666">
        <ele>1</ele>
        <time>2021-11-27T12:50:21+01:00</time>
      </trkpt>
      <trkpt lat="43.45322" lon="3.8069">
        <ele>1</ele>
        <time>2021-11-27T12:50:36+01:00</time>
      </trkpt>
      <trkpt lat="43.45333" lon="3.80713">
        <ele>1</ele>
        <time>2021-11-27T12:50:52+01:00</time>
      </trkpt>
      <trkpt lat="43.45344" lon="3.80734">
        <ele>1</ele>
        <time>2021-11-27T12:51:08+01:00</time>
      </trkpt>
      <trkpt lat="43.45355" lon="3.80756">
        <ele>1</ele>
        <time>2021-11-27T12:51:24+01:00</time>
      </trkpt>
      <trkpt lat="43.45365" lon="3.80778">
        <ele>1</ele>
        <time>2021-11-27T12:51:38+01:00</time>
      </trkpt>
      <trkpt lat="43.45377" lon="3.80798">
        <ele>1</ele>
        <time>2021-11-27T12:51:54+01:00</time>
      </trkpt>
      <trkpt lat="43.45387" lon="3.80822">
        <ele>1</ele>
        <time>2021-11-27T12:52:10+01:00</time>
      </trkpt>
      <trkpt lat="43.45398" lon="3.80843">
        <ele>1</ele>
        <time>2021-11-27T12:52:25+01:00</time>
      </trkpt>
      <trkpt lat="43.45409" lon="3.80864">
        <ele>1</ele>
        <time>2021-11-27T12:52:42+01:00</time>
      </trkpt>
      <trkpt lat="43.4542" lon="3.80885">
        <ele>1</ele>
        <time>2021-11-27T12:52:57+01:00</time>
      </trkpt>
      <trkpt lat="43.4543" lon="3.80908">
        <ele>1</ele>
        <time>2021-11-27T12:53:12+01:00</time>
      </trkpt>
      <trkpt lat="43.45441" lon="3.80929">
        <ele>1</ele>
        <time>2021-11-27T12:53:28+01:00</time>
      </trkpt>
      <trkpt lat="43.45453" lon="3.8095">
        <ele>1</ele>
        <time>2021-11-27T12:53:44+01:00</time>
      </trkpt>
      <trkpt lat="43.45464" lon="3.8097">
        <ele>1</ele>
        <time>2021-11-27T12:53:58+01:00</time>
      </trkpt>
      <trkpt lat="43.45474" lon="3.80993">
        <ele>1</ele>
        <time>2021-11-27T12:54:13+01:00</time>
      </trkpt>
      <trkpt lat="43.45486" lon="3.81015">
        <ele>1</ele>
        <time>2021-11-27T12:54:29+01:00</time>
      </trkpt>
      <trkpt lat="43.45496" lon="3.81037">
        <ele>1</ele>
        <time>2021-11-27T12:54:45+01:00</time>
      </trkpt>
      <trkpt lat="43.45507" lon="3.81059">
        <ele>1</ele>
        <time>2021-11-27T12:55:01+01:00</time>
      </trkpt>
      <trkpt lat="43.45517" lon="3.81081">
        <ele>2</ele>
        <time>2021-11-27T12:55:16+01:00</time>
      </trkpt>
      <trkpt lat="43.45527" lon="3.81103">
        <ele>2</ele>
        <time>2021-11-27T12:55:32+01:00</time>
      </trkpt>
      <trkpt lat="43.45536" lon="3.81125">
        <ele>2</ele>
        <time>2021-11-27T12:55:48+01:00</time>
      </trkpt>
      <trkpt lat="43.4555" lon="3.81142">
        <ele>1.9</ele>
        <time>2021-11-27T12:56:02+01:00</time>
      </trkpt>
      <trkpt lat="43.45561" lon="3.81164">
        <ele>1.1</ele>
        <time>2021-11-27T12:56:17+01:00</time>
      </trkpt>
      <trkpt lat="43.45571" lon="3.81187">
        <ele>1.7</ele>
        <time>2021-11-27T12:56:33+01:00</time>
      </trkpt>
      <trkpt lat="43.45583" lon="3.81208">
        <ele>1.5</ele>
        <time>2021-11-27T12:56:49+01:00</time>
      </trkpt>
      <trkpt lat="43.45594" lon="3.81229">
        <ele>1.2</ele>
        <time>2021-11-27T12:57:04+01:00</time>
      </trkpt>
      <trkpt lat="43.45605" lon="3.8125">
        <ele>2</ele>
        <time>2021-11-27T12:57:20+01:00</time>
      </trkpt>
      <trkpt lat="43.45616" lon="3.81272">
        <ele>2</ele>
        <time>2021-11-27T12:57:35+01:00</time>
      </trkpt>
      <trkpt lat="43.45627" lon="3.81293">
        <ele>2</ele>
        <time>2021-11-27T12:57:50+01:00</time>
      </trkpt>
      <trkpt lat="43.45637" lon="3.81315">
        <ele>2</ele>
        <time>2021-11-27T12:58:07+01:00</time>
      </trkpt>
      <trkpt lat="43.45648" lon="3.81336">
        <ele>2</ele>
        <time>2021-11-27T12:58:20+01:00</time>
      </trkpt>
      <trkpt lat="43.45659" lon="3.81359">
        <ele>2</ele>
        <time>2021-11-27T12:58:37+01:00</time>
      </trkpt>
      <trkpt lat="43.45669" lon="3.81381">
        <ele>2</ele>
        <time>2021-11-27T12:58:53+01:00</time>
      </trkpt>
      <trkpt lat="43.4568" lon="3.81402">
        <ele>2</ele>
        <time>2021-11-27T12:59:08+01:00</time>
      </trkpt>
      <trkpt lat="43.45693" lon="3.81423">
        <ele>2</ele>
        <time>2021-11-27T12:59:23+01:00</time>
      </trkpt>
      <trkpt lat="43.45704" lon="3.81443">
        <ele>1</ele>
        <time>2021-11-27T12:59:39+01:00</time>
      </trkpt>
      <trkpt lat="43.45716" lon="3.81465">
        <ele>1</ele>
        <time>2021-11-27T12:59:56+01:00</time>
      </trkpt>
      <trkpt lat="43.45728" lon="3.81485">
        <ele>1.5</ele>
        <time>2021-11-27T13:00:11+01:00</time>
      </trkpt>
      <trkpt lat="43.4574" lon="3.81505">
        <ele>1</ele>
        <time>2021-11-27T13:00:26+01:00</time>
      </trkpt>
      <trkpt lat="43.45752" lon="3.81525">
        <ele>1</ele>
        <time>2021-11-27T13:00:42+01:00</time>
      </trkpt>
      <trkpt lat="43.45766" lon="3.81544">
        <ele>1</ele>
        <time>2021-11-27T13:01:00+01:00</time>
      </trkpt>
      <trkpt lat="43.45779" lon="3.81561">
        <ele>1</ele>
        <time>2021-11-27T13:01:14+01:00</time>
      </trkpt>
      <trkpt lat="43.45792" lon="3.81579">
        <ele>1</ele>
        <time>2021-11-27T13:01:30+01:00</time>
      </trkpt>
      <trkpt lat="43.45806" lon="3.81599">
        <ele>1</ele>
        <time>2021-11-27T13:01:46+01:00</time>
      </trkpt>
      <trkpt lat="43.45819" lon="3.81616">
        <ele>1</ele>
        <time>2021-11-27T13:02:00+01:00</time>
      </trkpt>
      <trkpt lat="43.45831" lon="3.81636">
        <ele>1</ele>
        <time>2021-11-27T13:02:15+01:00</time>
      </trkpt>
      <trkpt lat="43.45845" lon="3.81654">
        <ele>1.5</ele>
        <time>2021-11-27T13:02:29+01:00</time>
      </trkpt>
      <trkpt lat="43.45857" lon="3.81673">
        <ele>1.8</ele>
        <time>2021-11-27T13:02:45+01:00</time>
      </trkpt>
      <trkpt lat="43.4587" lon="3.81692">
        <ele>1</ele>
        <time>2021-11-27T13:03:01+01:00</time>
      </trkpt>
      <trkpt lat="43.45884" lon="3.81712">
        <ele>1</ele>
        <time>2021-11-27T13:03:17+01:00</time>
      </trkpt>
      <trkpt lat="43.45897" lon="3.8173">
        <ele>1</ele>
        <time>2021-11-27T13:03:32+01:00</time>
      </trkpt>
      <trkpt lat="43.4591" lon="3.8175">
        <ele>1</ele>
        <time>2021-11-27T13:03:48+01:00</time>
      </trkpt>
      <trkpt lat="43.45924" lon="3.81769">
        <ele>1</ele>
        <time>2021-11-27T13:04:04+01:00</time>
      </trkpt>
      <trkpt lat="43.45937" lon="3.81788">
        <ele>1</ele>
        <time>2021-11-27T13:04:20+01:00</time>
      </trkpt>
      <trkpt lat="43.4595" lon="3.81807">
        <ele>1</ele>
        <time>2021-11-27T13:04:36+01:00</time>
      </trkpt>
      <trkpt lat="43.45963" lon="3.81827">
        <ele>1</ele>
        <time>2021-11-27T13:04:52+01:00</time>
      </trkpt>
      <trkpt lat="43.45978" lon="3.81843">
        <ele>1</ele>
        <time>2021-11-27T13:05:09+01:00</time>
      </trkpt>
      <trkpt lat="43.45992" lon="3.81861">
        <ele>1</ele>
        <time>2021-11-27T13:05:26+01:00</time>
      </trkpt>
      <trkpt lat="43.46006" lon="3.8188">
        <ele>1</ele>
        <time>2021-11-27T13:05:42+01:00</time>
      </trkpt>
      <trkpt lat="43.46021" lon="3.81897">
        <ele>1</ele>
        <time>2021-11-27T13:05:57+01:00</time>
      </trkpt>
      <trkpt lat="43.46038" lon="3.81911">
        <ele>1</ele>
        <time>2021-11-27T13:06:13+01:00</time>
      </trkpt>
      <trkpt lat="43.46054" lon="3.81924">
        <ele>1</ele>
        <time>2021-11-27T13:06:29+01:00</time>
      </trkpt>
      <trkpt lat="43.46069" lon="3.81938">
        <ele>1</ele>
        <time>2021-11-27T13:06:46+01:00</time>
      </trkpt>
      <trkpt lat="43.46077" lon="3.81962">
        <ele>1</ele>
        <time>2021-11-27T13:07:04+01:00</time>
      </trkpt>
      <trkpt lat="43.46075" lon="3.81974">
        <ele>1</ele>
        <time>2021-11-27T13:07:24+01:00</time>
      </trkpt>
      <trkpt lat="43.4609" lon="3.81958">
        <ele>1</ele>
        <time>2021-11-27T13:08:30+01:00</time>
      </trkpt>
      <trkpt lat="43.46106" lon="3.81953">
        <ele>1</ele>
        <time>2021-11-27T13:08:50+01:00</time>
      </trkpt>
      <trkpt lat="43.46126" lon="3.81959">
        <ele>1</ele>
        <time>2021-11-27T13:09:04+01:00</time>
      </trkpt>
      <trkpt lat="43.46144" lon="3.81963">
        <ele>1</ele>
        <time>2021-11-27T13:09:20+01:00</time>
      </trkpt>
      <trkpt lat="43.46163" lon="3.81965">
        <ele>1</ele>
        <time>2021-11-27T13:09:34+01:00</time>
      </trkpt>
      <trkpt lat="43.46181" lon="3.81969">
        <ele>1</ele>
        <time>2021-11-27T13:09:51+01:00</time>
      </trkpt>
      <trkpt lat="43.46201" lon="3.81967">
        <ele>1</ele>
        <time>2021-11-27T13:10:06+01:00</time>
      </trkpt>
      <trkpt lat="43.4622" lon="3.81963">
        <ele>1</ele>
        <time>2021-11-27T13:10:22+01:00</time>
      </trkpt>
      <trkpt lat="43.46238" lon="3.81959">
        <ele>1</ele>
        <time>2021-11-27T13:10:36+01:00</time>
      </trkpt>
      <trkpt lat="43.46256" lon="3.81954">
        <ele>1</ele>
        <time>2021-11-27T13:10:52+01:00</time>
      </trkpt>
      <trkpt lat="43.46274" lon="3.81948">
        <ele>1</ele>
        <time>2021-11-27T13:11:08+01:00</time>
      </trkpt>
      <trkpt lat="43.46292" lon="3.81941">
        <ele>1</ele>
        <time>2021-11-27T13:11:24+01:00</time>
      </trkpt>
      <trkpt lat="43.46311" lon="3.81932">
        <ele>1</ele>
        <time>2021-11-27T13:11:39+01:00</time>
      </trkpt>
      <trkpt lat="43.46327" lon="3.81922">
        <ele>1</ele>
        <time>2021-11-27T13:11:56+01:00</time>
      </trkpt>
      <trkpt lat="43.46343" lon="3.81907">
        <ele>1</ele>
        <time>2021-11-27T13:12:14+01:00</time>
      </trkpt>
      <trkpt lat="43.46359" lon="3.81892">
        <ele>1</ele>
        <time>2021-11-27T13:12:31+01:00</time>
      </trkpt>
      <trkpt lat="43.46375" lon="3.81876">
        <ele>1</ele>
        <time>2021-11-27T13:12:50+01:00</time>
      </trkpt>
      <trkpt lat="43.46388" lon="3.81856">
        <ele>1</ele>
        <time>2021-11-27T13:13:09+01:00</time>
      </trkpt>
      <trkpt lat="43.464" lon="3.81837">
        <ele>1</ele>
        <time>2021-11-27T13:13:27+01:00</time>
      </trkpt>
      <trkpt lat="43.46415" lon="3.81821">
        <ele>1</ele>
        <time>2021-11-27T13:13:49+01:00</time>
      </trkpt>
      <trkpt lat="43.46429" lon="3.81804">
        <ele>1</ele>
        <time>2021-11-27T13:14:09+01:00</time>
      </trkpt>
      <trkpt lat="43.46444" lon="3.81787">
        <ele>1.3</ele>
        <time>2021-11-27T13:15:30+01:00</time>
      </trkpt>
      <trkpt lat="43.46456" lon="3.81769">
        <ele>2</ele>
        <time>2021-11-27T13:15:44+01:00</time>
      </trkpt>
      <trkpt lat="43.46471" lon="3.81751">
        <ele>2</ele>
        <time>2021-11-27T13:16:02+01:00</time>
      </trkpt>
      <trkpt lat="43.46485" lon="3.81734">
        <ele>1</ele>
        <time>2021-11-27T13:16:18+01:00</time>
      </trkpt>
      <trkpt lat="43.46499" lon="3.81718">
        <ele>1</ele>
        <time>2021-11-27T13:16:33+01:00</time>
      </trkpt>
      <trkpt lat="43.46516" lon="3.81702">
        <ele>1</ele>
        <time>2021-11-27T13:16:50+01:00</time>
      </trkpt>
      <trkpt lat="43.46531" lon="3.81685">
        <ele>1</ele>
        <time>2021-11-27T13:17:05+01:00</time>
      </trkpt>
      <trkpt lat="43.46546" lon="3.81671">
        <ele>1</ele>
        <time>2021-11-27T13:17:26+01:00</time>
      </trkpt>
      <trkpt lat="43.46559" lon="3.81652">
        <ele>1</ele>
        <time>2021-11-27T13:17:44+01:00</time>
      </trkpt>
      <trkpt lat="43.46571" lon="3.81633">
        <ele>1</ele>
        <time>2021-11-27T13:18:01+01:00</time>
      </trkpt>
      <trkpt lat="43.46585" lon="3.81615">
        <ele>1</ele>
        <time>2021-11-27T13:18:20+01:00</time>
      </trkpt>
      <trkpt lat="43.46599" lon="3.81598">
        <ele>1.7</ele>
        <time>2021-11-27T13:18:34+01:00</time>
      </trkpt>
      <trkpt lat="43.46614" lon="3.8158">
        <ele>2</ele>
        <time>2021-11-27T13:18:52+01:00</time>
      </trkpt>
      <trkpt lat="43.46627" lon="3.8156">
        <ele>1.5</ele>
        <time>2021-11-27T13:19:10+01:00</time>
      </trkpt>
      <trkpt lat="43.46641" lon="3.81543">
        <ele>1.5</ele>
        <time>2021-11-27T13:19:27+01:00</time>
      </trkpt>
      <trkpt lat="43.46654" lon="3.81523">
        <ele>1</ele>
        <time>2021-11-27T13:19:45+01:00</time>
      </trkpt>
      <trkpt lat="43.46667" lon="3.81504">
        <ele>1</ele>
        <time>2021-11-27T13:20:03+01:00</time>
      </trkpt>
      <trkpt lat="43.46681" lon="3.81485">
        <ele>1</ele>
        <time>2021-11-27T13:20:21+01:00</time>
      </trkpt>
      <trkpt lat="43.46694" lon="3.81465">
        <ele>1</ele>
        <time>2021-11-27T13:20:40+01:00</time>
      </trkpt>
      <trkpt lat="43.46706" lon="3.81445">
        <ele>1</ele>
        <time>2021-11-27T13:20:57+01:00</time>
      </trkpt>
      <trkpt lat="43.46719" lon="3.81426">
        <ele>1</ele>
        <time>2021-11-27T13:21:17+01:00</time>
      </trkpt>
      <trkpt lat="43.46701" lon="3.81414">
        <ele>1</ele>
        <time>2021-11-27T13:22:53+01:00</time>
      </trkpt>
      <trkpt lat="43.46683" lon="3.81424">
        <ele>1</ele>
        <time>2021-11-27T13:23:06+01:00</time>
      </trkpt>
      <trkpt lat="43.46665" lon="3.81433">
        <ele>1</ele>
        <time>2021-11-27T13:23:23+01:00</time>
      </trkpt>
      <trkpt lat="43.46647" lon="3.81443">
        <ele>1</ele>
        <time>2021-11-27T13:23:39+01:00</time>
      </trkpt>
      <trkpt lat="43.46629" lon="3.81434">
        <ele>1</ele>
        <time>2021-11-27T13:23:57+01:00</time>
      </trkpt>
      <trkpt lat="43.46616" lon="3.81415">
        <ele>1</ele>
        <time>2021-11-27T13:24:16+01:00</time>
      </trkpt>
      <trkpt lat="43.46603" lon="3.81397">
        <ele>1</ele>
        <time>2021-11-27T13:24:38+01:00</time>
      </trkpt>
      <trkpt lat="43.4659" lon="3.81378">
        <ele>1</ele>
        <time>2021-11-27T13:25:04+01:00</time>
      </trkpt>
      <trkpt lat="43.46576" lon="3.8136">
        <ele>1</ele>
        <time>2021-11-27T13:25:19+01:00</time>
      </trkpt>
      <trkpt lat="43.46561" lon="3.81346">
        <ele>1</ele>
        <time>2021-11-27T13:25:36+01:00</time>
      </trkpt>
      <trkpt lat="43.46545" lon="3.81329">
        <ele>1</ele>
        <time>2021-11-27T13:25:52+01:00</time>
      </trkpt>
      <trkpt lat="43.46536" lon="3.81306">
        <ele>1</ele>
        <time>2021-11-27T13:26:09+01:00</time>
      </trkpt>
      <trkpt lat="43.46523" lon="3.81286">
        <ele>1</ele>
        <time>2021-11-27T13:26:24+01:00</time>
      </trkpt>
      <trkpt lat="43.4651" lon="3.81266">
        <ele>1</ele>
        <time>2021-11-27T13:26:40+01:00</time>
      </trkpt>
      <trkpt lat="43.46496" lon="3.81249">
        <ele>1</ele>
        <time>2021-11-27T13:26:57+01:00</time>
      </trkpt>
      <trkpt lat="43.46481" lon="3.81233">
        <ele>1</ele>
        <time>2021-11-27T13:27:14+01:00</time>
      </trkpt>
      <trkpt lat="43.46475" lon="3.81208">
        <ele>1</ele>
        <time>2021-11-27T13:27:30+01:00</time>
      </trkpt>
      <trkpt lat="43.46474" lon="3.81182">
        <ele>1</ele>
        <time>2021-11-27T13:27:45+01:00</time>
      </trkpt>
      <trkpt lat="43.46469" lon="3.81157">
        <ele>1</ele>
        <time>2021-11-27T13:28:02+01:00</time>
      </trkpt>
      <trkpt lat="43.46463" lon="3.81132">
        <ele>1</ele>
        <time>2021-11-27T13:28:19+01:00</time>
      </trkpt>
      <trkpt lat="43.46459" lon="3.81106">
        <ele>1</ele>
        <time>2021-11-27T13:28:36+01:00</time>
      </trkpt>
      <trkpt lat="43.4646" lon="3.81079">
        <ele>2</ele>
        <time>2021-11-27T13:28:54+01:00</time>
      </trkpt>
      <trkpt lat="43.46461" lon="3.81054">
        <ele>2</ele>
        <time>2021-11-27T13:29:11+01:00</time>
      </trkpt>
      <trkpt lat="43.46458" lon="3.81027">
        <ele>2</ele>
        <time>2021-11-27T13:29:28+01:00</time>
      </trkpt>
      <trkpt lat="43.46455" lon="3.81002">
        <ele>2</ele>
        <time>2021-11-27T13:29:47+01:00</time>
      </trkpt>
      <trkpt lat="43.46445" lon="3.80981">
        <ele>2</ele>
        <time>2021-11-27T13:30:05+01:00</time>
      </trkpt>
      <trkpt lat="43.46431" lon="3.80963">
        <ele>2</ele>
        <time>2021-11-27T13:30:23+01:00</time>
      </trkpt>
      <trkpt lat="43.46416" lon="3.80949">
        <ele>2</ele>
        <time>2021-11-27T13:30:39+01:00</time>
      </trkpt>
      <trkpt lat="43.46399" lon="3.80939">
        <ele>2</ele>
        <time>2021-11-27T13:30:56+01:00</time>
      </trkpt>
      <trkpt lat="43.46388" lon="3.80919">
        <ele>2</ele>
        <time>2021-11-27T13:31:14+01:00</time>
      </trkpt>
      <trkpt lat="43.46387" lon="3.80895">
        <ele>2</ele>
        <time>2021-11-27T13:31:30+01:00</time>
      </trkpt>
      <trkpt lat="43.46392" lon="3.80871">
        <ele>2</ele>
        <time>2021-11-27T13:31:45+01:00</time>
      </trkpt>
      <trkpt lat="43.46395" lon="3.80845">
        <ele>2</ele>
        <time>2021-11-27T13:32:01+01:00</time>
      </trkpt>
      <trkpt lat="43.46395" lon="3.8082">
        <ele>3</ele>
        <time>2021-11-27T13:58:53+01:00</time>
      </trkpt>
      <trkpt lat="43.46408" lon="3.80803">
        <ele>3</ele>
        <time>2021-11-27T13:59:23+01:00</time>
      </trkpt>
      <trkpt lat="43.46423" lon="3.80786">
        <ele>3</ele>
        <time>2021-11-27T13:59:48+01:00</time>
      </trkpt>
      <trkpt lat="43.46441" lon="3.80778">
        <ele>3</ele>
        <time>2021-11-27T14:00:10+01:00</time>
      </trkpt>
      <trkpt lat="43.46449" lon="3.80771">
        <ele>3</ele>
        <time>2021-11-27T14:00:28+01:00</time>
      </trkpt>
      <trkpt lat="43.46462" lon="3.80758">
        <ele>3</ele>
        <time>2021-11-27T14:00:38+01:00</time>
      </trkpt>
      <trkpt lat="43.46449" lon="3.80733">
        <ele>3</ele>
        <time>2021-11-27T14:00:57+01:00</time>
      </trkpt>
      <trkpt lat="43.46439" lon="3.80711">
        <ele>3</ele>
        <time>2021-11-27T14:01:12+01:00</time>
      </trkpt>
      <trkpt lat="43.46432" lon="3.80687">
        <ele>3</ele>
        <time>2021-11-27T14:01:28+01:00</time>
      </trkpt>
      <trkpt lat="43.46424" lon="3.80662">
        <ele>3</ele>
        <time>2021-11-27T14:01:45+01:00</time>
      </trkpt>
      <trkpt lat="43.46413" lon="3.80639">
        <ele>3</ele>
        <time>2021-11-27T14:02:00+01:00</time>
      </trkpt>
      <trkpt lat="43.46404" lon="3.80617">
        <ele>3</ele>
        <time>2021-11-27T14:02:14+01:00</time>
      </trkpt>
      <trkpt lat="43.46392" lon="3.80596">
        <ele>3</ele>
        <time>2021-11-27T14:02:30+01:00</time>
      </trkpt>
      <trkpt lat="43.46382" lon="3.80574">
        <ele>3</ele>
        <time>2021-11-27T14:02:47+01:00</time>
      </trkpt>
      <trkpt lat="43.4637" lon="3.80552">
        <ele>3</ele>
        <time>2021-11-27T14:03:04+01:00</time>
      </trkpt>
      <trkpt lat="43.46361" lon="3.80529">
        <ele>3</ele>
        <time>2021-11-27T14:03:21+01:00</time>
      </trkpt>
      <trkpt lat="43.46355" lon="3.80507">
        <ele>3</ele>
        <time>2021-11-27T14:03:38+01:00</time>
      </trkpt>
      <trkpt lat="43.4634" lon="3.80491">
        <ele>2</ele>
        <time>2021-11-27T14:03:53+01:00</time>
      </trkpt>
      <trkpt lat="43.4633" lon="3.80469">
        <ele>2</ele>
        <time>2021-11-27T14:04:12+01:00</time>
      </trkpt>
      <trkpt lat="43.46321" lon="3.80445">
        <ele>3</ele>
        <time>2021-11-27T14:04:29+01:00</time>
      </trkpt>
      <trkpt lat="43.46312" lon="3.80422">
        <ele>2</ele>
        <time>2021-11-27T14:04:44+01:00</time>
      </trkpt>
      <trkpt lat="43.46305" lon="3.80396">
        <ele>2</ele>
        <time>2021-11-27T14:05:01+01:00</time>
      </trkpt>
      <trkpt lat="43.463" lon="3.8037">
        <ele>3</ele>
        <time>2021-11-27T14:05:17+01:00</time>
      </trkpt>
      <trkpt lat="43.46291" lon="3.80347">
        <ele>2</ele>
        <time>2021-11-27T14:05:33+01:00</time>
      </trkpt>
      <trkpt lat="43.46281" lon="3.80325">
        <ele>2</ele>
        <time>2021-11-27T14:05:50+01:00</time>
      </trkpt>
      <trkpt lat="43.4627" lon="3.80303">
        <ele>3</ele>
        <time>2021-11-27T14:06:06+01:00</time>
      </trkpt>
      <trkpt lat="43.46264" lon="3.80278">
        <ele>2</ele>
        <time>2021-11-27T14:06:22+01:00</time>
      </trkpt>
      <trkpt lat="43.46254" lon="3.80254">
        <ele>2</ele>
        <time>2021-11-27T14:06:40+01:00</time>
      </trkpt>
      <trkpt lat="43.46245" lon="3.80228">
        <ele>3</ele>
        <time>2021-11-27T14:06:55+01:00</time>
      </trkpt>
      <trkpt lat="43.46235" lon="3.80205">
        <ele>2</ele>
        <time>2021-11-27T14:07:14+01:00</time>
      </trkpt>
      <trkpt lat="43.46227" lon="3.80182">
        <ele>3</ele>
        <time>2021-11-27T14:07:30+01:00</time>
      </trkpt>
      <trkpt lat="43.46219" lon="3.80159">
        <ele>3</ele>
        <time>2021-11-27T14:07:45+01:00</time>
      </trkpt>
      <trkpt lat="43.46208" lon="3.80137">
        <ele>3</ele>
        <time>2021-11-27T14:08:01+01:00</time>
      </trkpt>
      <trkpt lat="43.46198" lon="3.80115">
        <ele>3</ele>
        <time>2021-11-27T14:08:17+01:00</time>
      </trkpt>
      <trkpt lat="43.46188" lon="3.80091">
        <ele>3</ele>
        <time>2021-11-27T14:08:34+01:00</time>
      </trkpt>
      <trkpt lat="43.46189" lon="3.80065">
        <ele>3</ele>
        <time>2021-11-27T14:08:53+01:00</time>
      </trkpt>
      <trkpt lat="43.46178" lon="3.80043">
        <ele>3</ele>
        <time>2021-11-27T14:09:07+01:00</time>
      </trkpt>
      <trkpt lat="43.46166" lon="3.80021">
        <ele>3</ele>
        <time>2021-11-27T14:09:25+01:00</time>
      </trkpt>
      <trkpt lat="43.46158" lon="3.79997">
        <ele>3</ele>
        <time>2021-11-27T14:09:43+01:00</time>
      </trkpt>
      <trkpt lat="43.4615" lon="3.79973">
        <ele>3</ele>
        <time>2021-11-27T14:10:01+01:00</time>
      </trkpt>
      <trkpt lat="43.46145" lon="3.79948">
        <ele>4</ele>
        <time>2021-11-27T14:10:20+01:00</time>
      </trkpt>
      <trkpt lat="43.46136" lon="3.79925">
        <ele>4</ele>
        <time>2021-11-27T14:10:39+01:00</time>
      </trkpt>
      <trkpt lat="43.46129" lon="3.79901">
        <ele>4</ele>
        <time>2021-11-27T14:10:55+01:00</time>
      </trkpt>
      <trkpt lat="43.46119" lon="3.79879">
        <ele>4</ele>
        <time>2021-11-27T14:11:13+01:00</time>
      </trkpt>
      <trkpt lat="43.46109" lon="3.79855">
        <ele>5</ele>
        <time>2021-11-27T14:11:29+01:00</time>
      </trkpt>
      <trkpt lat="43.46099" lon="3.79834">
        <ele>5</ele>
        <time>2021-11-27T14:11:46+01:00</time>
      </trkpt>
      <trkpt lat="43.46087" lon="3.79812">
        <ele>4</ele>
        <time>2021-11-27T14:12:06+01:00</time>
      </trkpt>
      <trkpt lat="43.46078" lon="3.79789">
        <ele>4</ele>
        <time>2021-11-27T14:12:25+01:00</time>
      </trkpt>
      <trkpt lat="43.46073" lon="3.79764">
        <ele>4</ele>
        <time>2021-11-27T14:12:43+01:00</time>
      </trkpt>
      <trkpt lat="43.46069" lon="3.7974">
        <ele>3</ele>
        <time>2021-11-27T14:13:04+01:00</time>
      </trkpt>
      <trkpt lat="43.46074" lon="3.79715">
        <ele>3</ele>
        <time>2021-11-27T14:13:18+01:00</time>
      </trkpt>
      <trkpt lat="43.46078" lon="3.79689">
        <ele>3</ele>
        <time>2021-11-27T14:13:36+01:00</time>
      </trkpt>
      <trkpt lat="43.46079" lon="3.79662">
        <ele>3</ele>
        <time>2021-11-27T14:13:53+01:00</time>
      </trkpt>
      <trkpt lat="43.46086" lon="3.79638">
        <ele>3</ele>
        <time>2021-11-27T14:14:10+01:00</time>
      </trkpt>
      <trkpt lat="43.46091" lon="3.79614">
        <ele>3</ele>
        <time>2021-11-27T14:14:25+01:00</time>
      </trkpt>
      <trkpt lat="43.461" lon="3.79592">
        <ele>3</ele>
        <time>2021-11-27T14:14:42+01:00</time>
      </trkpt>
      <trkpt lat="43.46102" lon="3.79566">
        <ele>3</ele>
        <time>2021-11-27T14:14:58+01:00</time>
      </trkpt>
      <trkpt lat="43.46103" lon="3.7954">
        <ele>3</ele>
        <time>2021-11-27T14:15:17+01:00</time>
      </trkpt>
      <trkpt lat="43.46101" lon="3.79512">
        <ele>3</ele>
        <time>2021-11-27T14:15:41+01:00</time>
      </trkpt>
      <trkpt lat="43.46096" lon="3.79486">
        <ele>2</ele>
        <time>2021-11-27T14:15:58+01:00</time>
      </trkpt>
      <trkpt lat="43.46083" lon="3.79468">
        <ele>2</ele>
        <time>2021-11-27T14:16:21+01:00</time>
      </trkpt>
      <trkpt lat="43.4607" lon="3.79449">
        <ele>2</ele>
        <time>2021-11-27T14:16:41+01:00</time>
      </trkpt>
      <trkpt lat="43.46056" lon="3.79431">
        <ele>2</ele>
        <time>2021-11-27T14:16:59+01:00</time>
      </trkpt>
      <trkpt lat="43.46044" lon="3.7941">
        <ele>2</ele>
        <time>2021-11-27T14:17:14+01:00</time>
      </trkpt>
      <trkpt lat="43.46037" lon="3.79387">
        <ele>1</ele>
        <time>2021-11-27T14:17:37+01:00</time>
      </trkpt>
      <trkpt lat="43.4603" lon="3.79359">
        <ele>1</ele>
        <time>2021-11-27T14:17:57+01:00</time>
      </trkpt>
      <trkpt lat="43.46019" lon="3.79339">
        <ele>1</ele>
        <time>2021-11-27T14:18:24+01:00</time>
      </trkpt>
      <trkpt lat="43.46004" lon="3.79324">
        <ele>1</ele>
        <time>2021-11-27T14:18:43+01:00</time>
      </trkpt>
      <trkpt lat="43.45994" lon="3.793">
        <ele>1</ele>
        <time>2021-11-27T14:19:01+01:00</time>
      </trkpt>
      <trkpt lat="43.45981" lon="3.79282">
        <ele>1</ele>
        <time>2021-11-27T14:19:17+01:00</time>
      </trkpt>
      <trkpt lat="43.45974" lon="3.79257">
        <ele>1</ele>
        <time>2021-11-27T14:19:36+01:00</time>
      </trkpt>
      <trkpt lat="43.45973" lon="3.79233">
        <ele>1</ele>
        <time>2021-11-27T14:20:01+01:00</time>
      </trkpt>
      <trkpt lat="43.45957" lon="3.79219">
        <ele>1</ele>
        <time>2021-11-27T14:20:48+01:00</time>
      </trkpt>
      <trkpt lat="43.45948" lon="3.79198">
        <ele>1</ele>
        <time>2021-11-27T14:21:08+01:00</time>
      </trkpt>
      <trkpt lat="43.45934" lon="3.79183">
        <ele>1</ele>
        <time>2021-11-27T14:21:29+01:00</time>
      </trkpt>
      <trkpt lat="43.45923" lon="3.79161">
        <ele>1</ele>
        <time>2021-11-27T14:21:45+01:00</time>
      </trkpt>
      <trkpt lat="43.45914" lon="3.79139">
        <ele>1</ele>
        <time>2021-11-27T14:22:10+01:00</time>
      </trkpt>
      <trkpt lat="43.45901" lon="3.7912">
        <ele>1</ele>
        <time>2021-11-27T14:22:27+01:00</time>
      </trkpt>
      <trkpt lat="43.45894" lon="3.79097">
        <ele>1</ele>
        <time>2021-11-27T14:22:44+01:00</time>
      </trkpt>
      <trkpt lat="43.45881" lon="3.79079">
        <ele>1</ele>
        <time>2021-11-27T14:23:04+01:00</time>
      </trkpt>
      <trkpt lat="43.4587" lon="3.79057">
        <ele>1</ele>
        <time>2021-11-27T14:23:21+01:00</time>
      </trkpt>
      <trkpt lat="43.45869" lon="3.79033">
        <ele>1</ele>
        <time>2021-11-27T14:23:35+01:00</time>
      </trkpt>
      <trkpt lat="43.45857" lon="3.79012">
        <ele>1</ele>
        <time>2021-11-27T14:23:56+01:00</time>
      </trkpt>
      <trkpt lat="43.45845" lon="3.78993">
        <ele>1</ele>
        <time>2021-11-27T14:24:13+01:00</time>
      </trkpt>
      <trkpt lat="43.45829" lon="3.78982">
        <ele>1</ele>
        <time>2021-11-27T14:24:30+01:00</time>
      </trkpt>
      <trkpt lat="43.45825" lon="3.78958">
        <ele>1</ele>
        <time>2021-11-27T14:25:08+01:00</time>
      </trkpt>
      <trkpt lat="43.45822" lon="3.78932">
        <ele>1</ele>
        <time>2021-11-27T14:25:30+01:00</time>
      </trkpt>
      <trkpt lat="43.4583" lon="3.78909">
        <ele>1</ele>
        <time>2021-11-27T14:25:52+01:00</time>
      </trkpt>
      <trkpt lat="43.45842" lon="3.78889">
        <ele>1</ele>
        <time>2021-11-27T14:26:11+01:00</time>
      </trkpt>
      <trkpt lat="43.45851" lon="3.78866">
        <ele>1</ele>
        <time>2021-11-27T14:26:31+01:00</time>
      </trkpt>
      <trkpt lat="43.45857" lon="3.78841">
        <ele>1</ele>
        <time>2021-11-27T14:26:51+01:00</time>
      </trkpt>
      <trkpt lat="43.45861" lon="3.78814">
        <ele>1</ele>
        <time>2021-11-27T14:27:09+01:00</time>
      </trkpt>
      <trkpt lat="43.45858" lon="3.78788">
        <ele>1</ele>
        <time>2021-11-27T14:27:28+01:00</time>
      </trkpt>
      <trkpt lat="43.45857" lon="3.78761">
        <ele>1</ele>
        <time>2021-11-27T14:27:47+01:00</time>
      </trkpt>
      <trkpt lat="43.45858" lon="3.78736">
        <ele>1</ele>
        <time>2021-11-27T14:28:05+01:00</time>
      </trkpt>
      <trkpt lat="43.45855" lon="3.7871">
        <ele>1</ele>
        <time>2021-11-27T14:28:22+01:00</time>
      </trkpt>
      <trkpt lat="43.4585" lon="3.78685">
        <ele>1</ele>
        <time>2021-11-27T14:28:41+01:00</time>
      </trkpt>
      <trkpt lat="43.45849" lon="3.78659">
        <ele>1</ele>
        <time>2021-11-27T14:29:05+01:00</time>
      </trkpt>
      <trkpt lat="43.45857" lon="3.78637">
        <ele>1</ele>
        <time>2021-11-27T14:29:30+01:00</time>
      </trkpt>
      <trkpt lat="43.45866" lon="3.78615">
        <ele>1</ele>
        <time>2021-11-27T14:31:04+01:00</time>
      </trkpt>
      <trkpt lat="43.45876" lon="3.78594">
        <ele>1</ele>
        <time>2021-11-27T14:31:25+01:00</time>
      </trkpt>
      <trkpt lat="43.45886" lon="3.78573">
        <ele>1</ele>
        <time>2021-11-27T14:31:50+01:00</time>
      </trkpt>
      <trkpt lat="43.45899" lon="3.78554">
        <ele>1</ele>
        <time>2021-11-27T14:32:21+01:00</time>
      </trkpt>
      <trkpt lat="43.45912" lon="3.78535">
        <ele>1</ele>
        <time>2021-11-27T14:32:51+01:00</time>
      </trkpt>
      <trkpt lat="43.45927" lon="3.7852">
        <ele>1</ele>
        <time>2021-11-27T14:33:09+01:00</time>
      </trkpt>
      <trkpt lat="43.45942" lon="3.78503">
        <ele>1</ele>
        <time>2021-11-27T14:33:29+01:00</time>
      </trkpt>
      <trkpt lat="43.45959" lon="3.78488">
        <ele>1</ele>
        <time>2021-11-27T14:33:46+01:00</time>
      </trkpt>
      <trkpt lat="43.45974" lon="3.78472">
        <ele>1</ele>
        <time>2021-11-27T14:34:02+01:00</time>
      </trkpt>
      <trkpt lat="43.45988" lon="3.78454">
        <ele>1</ele>
        <time>2021-11-27T14:34:19+01:00</time>
      </trkpt>
      <trkpt lat="43.46" lon="3.78434">
        <ele>1</ele>
        <time>2021-11-27T14:34:38+01:00</time>
      </trkpt>
      <trkpt lat="43.46012" lon="3.78413">
        <ele>1</ele>
        <time>2021-11-27T14:34:57+01:00</time>
      </trkpt>
      <trkpt lat="43.46025" lon="3.78399">
        <ele>1</ele>
        <time>2021-11-27T14:35:23+01:00</time>
      </trkpt>
      <trkpt lat="43.46043" lon="3.78389">
        <ele>1</ele>
        <time>2021-11-27T14:36:24+01:00</time>
      </trkpt>
      <trkpt lat="43.46059" lon="3.78377">
        <ele>1</ele>
        <time>2021-11-27T14:36:50+01:00</time>
      </trkpt>
      <trkpt lat="43.46068" lon="3.78372">
        <ele>1</ele>
        <time>2021-11-27T14:37:08+01:00</time>
      </trkpt>
      <trkpt lat="43.4607" lon="3.78347">
        <ele>1</ele>
        <time>2021-11-27T14:37:32+01:00</time>
      </trkpt>
      <trkpt lat="43.46071" lon="3.78321">
        <ele>1</ele>
        <time>2021-11-27T14:37:50+01:00</time>
      </trkpt>
      <trkpt lat="43.46074" lon="3.78295">
        <ele>1</ele>
        <time>2021-11-27T14:38:08+01:00</time>
      </trkpt>
      <trkpt lat="43.46073" lon="3.78269">
        <ele>1</ele>
        <time>2021-11-27T14:38:24+01:00</time>
      </trkpt>
      <trkpt lat="43.46072" lon="3.78244">
        <ele>1</ele>
        <time>2021-11-27T14:38:42+01:00</time>
      </trkpt>
      <trkpt lat="43.46068" lon="3.78218">
        <ele>1</ele>
        <time>2021-11-27T14:39:01+01:00</time>
      </trkpt>
      <trkpt lat="43.46068" lon="3.78191">
        <ele>1</ele>
        <time>2021-11-27T14:39:18+01:00</time>
      </trkpt>
      <trkpt lat="43.46066" lon="3.78178">
        <ele>1</ele>
        <time>2021-11-27T14:39:27+01:00</time>
      </trkpt>
      <trkpt lat="43.46056" lon="3.78159">
        <ele>1</ele>
        <time>2021-11-27T14:39:45+01:00</time>
      </trkpt>
      <trkpt lat="43.46062" lon="3.78134">
        <ele>1</ele>
        <time>2021-11-27T14:40:41+01:00</time>
      </trkpt>
      <trkpt lat="43.46069" lon="3.7811">
        <ele>1</ele>
        <time>2021-11-27T14:41:01+01:00</time>
      </trkpt>
      <trkpt lat="43.46077" lon="3.78087">
        <ele>1</ele>
        <time>2021-11-27T14:41:21+01:00</time>
      </trkpt>
      <trkpt lat="43.46084" lon="3.78062">
        <ele>1</ele>
        <time>2021-11-27T14:41:37+01:00</time>
      </trkpt>
      <trkpt lat="43.4609" lon="3.78037">
        <ele>1</ele>
        <time>2021-11-27T14:41:54+01:00</time>
      </trkpt>
      <trkpt lat="43.46097" lon="3.78012">
        <ele>1</ele>
        <time>2021-11-27T14:42:12+01:00</time>
      </trkpt>
      <trkpt lat="43.46111" lon="3.77997">
        <ele>1</ele>
        <time>2021-11-27T14:42:28+01:00</time>
      </trkpt>
      <trkpt lat="43.46124" lon="3.77978">
        <ele>1</ele>
        <time>2021-11-27T14:42:46+01:00</time>
      </trkpt>
      <trkpt lat="43.46136" lon="3.77959">
        <ele>1</ele>
        <time>2021-11-27T14:43:02+01:00</time>
      </trkpt>
      <trkpt lat="43.46147" lon="3.77938">
        <ele>1</ele>
        <time>2021-11-27T14:43:17+01:00</time>
      </trkpt>
      <trkpt lat="43.4616" lon="3.7792">
        <ele>1</ele>
        <time>2021-11-27T14:43:35+01:00</time>
      </trkpt>
      <trkpt lat="43.46175" lon="3.77904">
        <ele>1</ele>
        <time>2021-11-27T14:43:56+01:00</time>
      </trkpt>
      <trkpt lat="43.46168" lon="3.77879">
        <ele>1</ele>
        <time>2021-11-27T14:45:20+01:00</time>
      </trkpt>
      <trkpt lat="43.46163" lon="3.77853">
        <ele>1</ele>
        <time>2021-11-27T14:45:56+01:00</time>
      </trkpt>
      <trkpt lat="43.46153" lon="3.7783">
        <ele>1</ele>
        <time>2021-11-27T14:46:16+01:00</time>
      </trkpt>
      <trkpt lat="43.46143" lon="3.77808">
        <ele>1</ele>
        <time>2021-11-27T14:46:32+01:00</time>
      </trkpt>
      <trkpt lat="43.46133" lon="3.77786">
        <ele>1</ele>
        <time>2021-11-27T14:46:46+01:00</time>
      </trkpt>
      <trkpt lat="43.46124" lon="3.77761">
        <ele>1</ele>
        <time>2021-11-27T14:47:03+01:00</time>
      </trkpt>
      <trkpt lat="43.46116" lon="3.77736">
        <ele>1</ele>
        <time>2021-11-27T14:47:28+01:00</time>
      </trkpt>
      <trkpt lat="43.46107" lon="3.77714">
        <ele>1</ele>
        <time>2021-11-27T14:47:44+01:00</time>
      </trkpt>
      <trkpt lat="43.46099" lon="3.77691">
        <ele>1</ele>
        <time>2021-11-27T14:48:00+01:00</time>
      </trkpt>
      <trkpt lat="43.46091" lon="3.77667">
        <ele>1</ele>
        <time>2021-11-27T14:48:16+01:00</time>
      </trkpt>
      <trkpt lat="43.46083" lon="3.77645">
        <ele>1</ele>
        <time>2021-11-27T14:48:32+01:00</time>
      </trkpt>
      <trkpt lat="43.46074" lon="3.77622">
        <ele>1</ele>
        <time>2021-11-27T14:48:49+01:00</time>
      </trkpt>
      <trkpt lat="43.46064" lon="3.776">
        <ele>1</ele>
        <time>2021-11-27T14:49:06+01:00</time>
      </trkpt>
      <trkpt lat="43.46057" lon="3.77576">
        <ele>1</ele>
        <time>2021-11-27T14:49:21+01:00</time>
      </trkpt>
      <trkpt lat="43.46045" lon="3.77554">
        <ele>1</ele>
        <time>2021-11-27T14:49:38+01:00</time>
      </trkpt>
      <trkpt lat="43.46032" lon="3.77534">
        <ele>1</ele>
        <time>2021-11-27T14:49:56+01:00</time>
      </trkpt>
      <trkpt lat="43.46019" lon="3.77515">
        <ele>1</ele>
        <time>2021-11-27T14:50:14+01:00</time>
      </trkpt>
      <trkpt lat="43.46014" lon="3.77491">
        <ele>1</ele>
        <time>2021-11-27T14:50:37+01:00</time>
      </trkpt>
      <trkpt lat="43.46006" lon="3.77467">
        <ele>1</ele>
        <time>2021-11-27T14:51:24+01:00</time>
      </trkpt>
      <trkpt lat="43.46" lon="3.77441">
        <ele>1</ele>
        <time>2021-11-27T14:51:40+01:00</time>
      </trkpt>
      <trkpt lat="43.45991" lon="3.77417">
        <ele>1</ele>
        <time>2021-11-27T14:51:56+01:00</time>
      </trkpt>
      <trkpt lat="43.45982" lon="3.77394">
        <ele>1</ele>
        <time>2021-11-27T14:52:12+01:00</time>
      </trkpt>
      <trkpt lat="43.45976" lon="3.77371">
        <ele>1</ele>
        <time>2021-11-27T14:52:28+01:00</time>
      </trkpt>
      <trkpt lat="43.45971" lon="3.77345">
        <ele>1</ele>
        <time>2021-11-27T14:52:44+01:00</time>
      </trkpt>
      <trkpt lat="43.45965" lon="3.7732">
        <ele>1</ele>
        <time>2021-11-27T14:53:21+01:00</time>
      </trkpt>
      <trkpt lat="43.45959" lon="3.77297">
        <ele>1</ele>
        <time>2021-11-27T14:53:41+01:00</time>
      </trkpt>
      <trkpt lat="43.45952" lon="3.77273">
        <ele>1</ele>
        <time>2021-11-27T14:54:03+01:00</time>
      </trkpt>
      <trkpt lat="43.45948" lon="3.77247">
        <ele>1</ele>
        <time>2021-11-27T14:54:22+01:00</time>
      </trkpt>
      <trkpt lat="43.45943" lon="3.77223">
        <ele>1</ele>
        <time>2021-11-27T14:54:37+01:00</time>
      </trkpt>
      <trkpt lat="43.45938" lon="3.77197">
        <ele>1</ele>
        <time>2021-11-27T14:54:55+01:00</time>
      </trkpt>
      <trkpt lat="43.45936" lon="3.7717">
        <ele>1</ele>
        <time>2021-11-27T14:55:12+01:00</time>
      </trkpt>
      <trkpt lat="43.45935" lon="3.77145">
        <ele>1</ele>
        <time>2021-11-27T14:55:29+01:00</time>
      </trkpt>
      <trkpt lat="43.45932" lon="3.77119">
        <ele>1</ele>
        <time>2021-11-27T14:55:47+01:00</time>
      </trkpt>
      <trkpt lat="43.45929" lon="3.77093">
        <ele>1</ele>
        <time>2021-11-27T14:56:06+01:00</time>
      </trkpt>
      <trkpt lat="43.45927" lon="3.77067">
        <ele>1</ele>
        <time>2021-11-27T14:56:25+01:00</time>
      </trkpt>
      <trkpt lat="43.45926" lon="3.7704">
        <ele>1</ele>
        <time>2021-11-27T14:56:43+01:00</time>
      </trkpt>
      <trkpt lat="43.45925" lon="3.77028">
        <ele>1</ele>
        <time>2021-11-27T14:56:52+01:00</time>
      </trkpt>
      <trkpt lat="43.45919" lon="3.77001">
        <ele>1</ele>
        <time>2021-11-27T15:00:03+01:00</time>
      </trkpt>
      <trkpt lat="43.45915" lon="3.76975">
        <ele>1</ele>
        <time>2021-11-27T15:00:21+01:00</time>
      </trkpt>
      <trkpt lat="43.45914" lon="3.7695">
        <ele>1</ele>
        <time>2021-11-27T15:00:45+01:00</time>
      </trkpt>
      <trkpt lat="43.45921" lon="3.76925">
        <ele>1</ele>
        <time>2021-11-27T15:01:11+01:00</time>
      </trkpt>
      <trkpt lat="43.45935" lon="3.76908">
        <ele>1</ele>
        <time>2021-11-27T15:01:30+01:00</time>
      </trkpt>
      <trkpt lat="43.45954" lon="3.76901">
        <ele>1</ele>
        <time>2021-11-27T15:01:47+01:00</time>
      </trkpt>
      <trkpt lat="43.45973" lon="3.769">
        <ele>1</ele>
        <time>2021-11-27T15:02:21+01:00</time>
      </trkpt>
      <trkpt lat="43.45992" lon="3.76899">
        <ele>1</ele>
        <time>2021-11-27T15:02:36+01:00</time>
      </trkpt>
      <trkpt lat="43.46011" lon="3.76899">
        <ele>1</ele>
        <time>2021-11-27T15:02:53+01:00</time>
      </trkpt>
      <trkpt lat="43.4603" lon="3.76894">
        <ele>1</ele>
        <time>2021-11-27T15:03:12+01:00</time>
      </trkpt>
      <trkpt lat="43.4605" lon="3.76891">
        <ele>1</ele>
        <time>2021-11-27T15:03:27+01:00</time>
      </trkpt>
      <trkpt lat="43.46068" lon="3.76887">
        <ele>1</ele>
        <time>2021-11-27T15:03:43+01:00</time>
      </trkpt>
      <trkpt lat="43.46088" lon="3.76882">
        <ele>1</ele>
        <time>2021-11-27T15:03:59+01:00</time>
      </trkpt>
      <trkpt lat="43.46106" lon="3.76878">
        <ele>1</ele>
        <time>2021-11-27T15:04:15+01:00</time>
      </trkpt>
      <trkpt lat="43.46124" lon="3.76872">
        <ele>1</ele>
        <time>2021-11-27T15:04:31+01:00</time>
      </trkpt>
      <trkpt lat="43.46143" lon="3.76866">
        <ele>1</ele>
        <time>2021-11-27T15:04:47+01:00</time>
      </trkpt>
      <trkpt lat="43.46161" lon="3.7686">
        <ele>1</ele>
        <time>2021-11-27T15:05:06+01:00</time>
      </trkpt>
      <trkpt lat="43.46175" lon="3.76843">
        <ele>1</ele>
        <time>2021-11-27T15:05:20+01:00</time>
      </trkpt>
      <trkpt lat="43.46164" lon="3.76826">
        <ele>1</ele>
        <time>2021-11-27T15:05:36+01:00</time>
      </trkpt>
      <trkpt lat="43.46148" lon="3.7681">
        <ele>1</ele>
        <time>2021-11-27T15:05:52+01:00</time>
      </trkpt>
      <trkpt lat="43.46129" lon="3.76807">
        <ele>1</ele>
        <time>2021-11-27T15:06:08+01:00</time>
      </trkpt>
      <trkpt lat="43.46111" lon="3.76803">
        <ele>1</ele>
        <time>2021-11-27T15:06:32+01:00</time>
      </trkpt>
      <trkpt lat="43.46093" lon="3.76792">
        <ele>1</ele>
        <time>2021-11-27T15:06:50+01:00</time>
      </trkpt>
      <trkpt lat="43.46075" lon="3.76781">
        <ele>1</ele>
        <time>2021-11-27T15:07:06+01:00</time>
      </trkpt>
      <trkpt lat="43.46058" lon="3.76767">
        <ele>1</ele>
        <time>2021-11-27T15:07:21+01:00</time>
      </trkpt>
      <trkpt lat="43.46043" lon="3.76752">
        <ele>1</ele>
        <time>2021-11-27T15:07:40+01:00</time>
      </trkpt>
      <trkpt lat="43.46026" lon="3.7674">
        <ele>1</ele>
        <time>2021-11-27T15:07:56+01:00</time>
      </trkpt>
      <trkpt lat="43.4601" lon="3.76727">
        <ele>1</ele>
        <time>2021-11-27T15:08:12+01:00</time>
      </trkpt>
      <trkpt lat="43.45994" lon="3.76715">
        <ele>1</ele>
        <time>2021-11-27T15:08:28+01:00</time>
      </trkpt>
      <trkpt lat="43.45979" lon="3.76703">
        <ele>1</ele>
        <time>2021-11-27T15:08:43+01:00</time>
      </trkpt>
      <trkpt lat="43.4596" lon="3.76694">
        <ele>1</ele>
        <time>2021-11-27T15:08:59+01:00</time>
      </trkpt>
      <trkpt lat="43.45944" lon="3.76681">
        <ele>1</ele>
        <time>2021-11-27T15:09:15+01:00</time>
      </trkpt>
      <trkpt lat="43.45926" lon="3.7667">
        <ele>1</ele>
        <time>2021-11-27T15:09:32+01:00</time>
      </trkpt>
      <trkpt lat="43.45909" lon="3.76656">
        <ele>1</ele>
        <time>2021-11-27T15:09:49+01:00</time>
      </trkpt>
      <trkpt lat="43.45894" lon="3.76644">
        <ele>1</ele>
        <time>2021-11-27T15:10:05+01:00</time>
      </trkpt>
      <trkpt lat="43.45877" lon="3.76631">
        <ele>1</ele>
        <time>2021-11-27T15:10:20+01:00</time>
      </trkpt>
      <trkpt lat="43.45859" lon="3.7662">
        <ele>1</ele>
        <time>2021-11-27T15:10:37+01:00</time>
      </trkpt>
      <trkpt lat="43.45843" lon="3.76607">
        <ele>1</ele>
        <time>2021-11-27T15:10:53+01:00</time>
      </trkpt>
      <trkpt lat="43.45826" lon="3.76593">
        <ele>1</ele>
        <time>2021-11-27T15:11:10+01:00</time>
      </trkpt>
      <trkpt lat="43.45809" lon="3.76581">
        <ele>1</ele>
        <time>2021-11-27T15:11:26+01:00</time>
      </trkpt>
      <trkpt lat="43.45792" lon="3.76568">
        <ele>1</ele>
        <time>2021-11-27T15:11:43+01:00</time>
      </trkpt>
      <trkpt lat="43.45776" lon="3.76556">
        <ele>1</ele>
        <time>2021-11-27T15:12:01+01:00</time>
      </trkpt>
      <trkpt lat="43.45758" lon="3.76544">
        <ele>1</ele>
        <time>2021-11-27T15:12:19+01:00</time>
      </trkpt>
      <trkpt lat="43.45742" lon="3.7653">
        <ele>1</ele>
        <time>2021-11-27T15:12:36+01:00</time>
      </trkpt>
      <trkpt lat="43.45724" lon="3.76518">
        <ele>1</ele>
        <time>2021-11-27T15:12:53+01:00</time>
      </trkpt>
      <trkpt lat="43.45706" lon="3.76516">
        <ele>1</ele>
        <time>2021-11-27T15:13:08+01:00</time>
      </trkpt>
      <trkpt lat="43.45686" lon="3.7652">
        <ele>1</ele>
        <time>2021-11-27T15:13:26+01:00</time>
      </trkpt>
      <trkpt lat="43.45667" lon="3.76525">
        <ele>1</ele>
        <time>2021-11-27T15:13:43+01:00</time>
      </trkpt>
      <trkpt lat="43.45648" lon="3.76526">
        <ele>1</ele>
        <time>2021-11-27T15:14:01+01:00</time>
      </trkpt>
      <trkpt lat="43.4563" lon="3.76526">
        <ele>1</ele>
        <time>2021-11-27T15:14:16+01:00</time>
      </trkpt>
      <trkpt lat="43.4561" lon="3.76523">
        <ele>1</ele>
        <time>2021-11-27T15:14:32+01:00</time>
      </trkpt>
      <trkpt lat="43.45592" lon="3.76515">
        <ele>1</ele>
        <time>2021-11-27T15:14:49+01:00</time>
      </trkpt>
      <trkpt lat="43.45574" lon="3.76506">
        <ele>1</ele>
        <time>2021-11-27T15:15:05+01:00</time>
      </trkpt>
      <trkpt lat="43.45555" lon="3.765">
        <ele>1</ele>
        <time>2021-11-27T15:15:22+01:00</time>
      </trkpt>
      <trkpt lat="43.45536" lon="3.76498">
        <ele>1</ele>
        <time>2021-11-27T15:15:38+01:00</time>
      </trkpt>
      <trkpt lat="43.45518" lon="3.76488">
        <ele>1</ele>
        <time>2021-11-27T15:15:53+01:00</time>
      </trkpt>
      <trkpt lat="43.45499" lon="3.76483">
        <ele>1</ele>
        <time>2021-11-27T15:16:09+01:00</time>
      </trkpt>
      <trkpt lat="43.4548" lon="3.7648">
        <ele>1</ele>
        <time>2021-11-27T15:16:25+01:00</time>
      </trkpt>
      <trkpt lat="43.45461" lon="3.76481">
        <ele>1</ele>
        <time>2021-11-27T15:16:42+01:00</time>
      </trkpt>
      <trkpt lat="43.45441" lon="3.7648">
        <ele>1</ele>
        <time>2021-11-27T15:16:59+01:00</time>
      </trkpt>
      <trkpt lat="43.45422" lon="3.76481">
        <ele>1</ele>
        <time>2021-11-27T15:17:14+01:00</time>
      </trkpt>
      <trkpt lat="43.45403" lon="3.76479">
        <ele>1</ele>
        <time>2021-11-27T15:17:28+01:00</time>
      </trkpt>
      <trkpt lat="43.45384" lon="3.76476">
        <ele>1</ele>
        <time>2021-11-27T15:17:46+01:00</time>
      </trkpt>
      <trkpt lat="43.45365" lon="3.76469">
        <ele>1</ele>
        <time>2021-11-27T15:18:04+01:00</time>
      </trkpt>
      <trkpt lat="43.45345" lon="3.76463">
        <ele>1</ele>
        <time>2021-11-27T15:18:20+01:00</time>
      </trkpt>
      <trkpt lat="43.45327" lon="3.76456">
        <ele>1</ele>
        <time>2021-11-27T15:18:35+01:00</time>
      </trkpt>
      <trkpt lat="43.45307" lon="3.76448">
        <ele>1</ele>
        <time>2021-11-27T15:18:51+01:00</time>
      </trkpt>
      <trkpt lat="43.45289" lon="3.76439">
        <ele>1</ele>
        <time>2021-11-27T15:19:08+01:00</time>
      </trkpt>
      <trkpt lat="43.45272" lon="3.76427">
        <ele>1</ele>
        <time>2021-11-27T15:19:25+01:00</time>
      </trkpt>
      <trkpt lat="43.45255" lon="3.76413">
        <ele>1</ele>
        <time>2021-11-27T15:19:42+01:00</time>
      </trkpt>
      <trkpt lat="43.4524" lon="3.76398">
        <ele>1</ele>
        <time>2021-11-27T15:19:57+01:00</time>
      </trkpt>
      <trkpt lat="43.45224" lon="3.76383">
        <ele>1</ele>
        <time>2021-11-27T15:20:12+01:00</time>
      </trkpt>
      <trkpt lat="43.45209" lon="3.76368">
        <ele>1</ele>
        <time>2021-11-27T15:20:30+01:00</time>
      </trkpt>
      <trkpt lat="43.45195" lon="3.76352">
        <ele>1</ele>
        <time>2021-11-27T15:20:49+01:00</time>
      </trkpt>
      <trkpt lat="43.45179" lon="3.76335">
        <ele>1</ele>
        <time>2021-11-27T15:21:06+01:00</time>
      </trkpt>
      <trkpt lat="43.45165" lon="3.76319">
        <ele>1</ele>
        <time>2021-11-27T15:21:23+01:00</time>
      </trkpt>
      <trkpt lat="43.45151" lon="3.76302">
        <ele>1</ele>
        <time>2021-11-27T15:21:37+01:00</time>
      </trkpt>
      <trkpt lat="43.45136" lon="3.76283">
        <ele>1</ele>
        <time>2021-11-27T15:21:55+01:00</time>
      </trkpt>
      <trkpt lat="43.45123" lon="3.76265">
        <ele>1</ele>
        <time>2021-11-27T15:22:09+01:00</time>
      </trkpt>
      <trkpt lat="43.45108" lon="3.7625">
        <ele>1</ele>
        <time>2021-11-27T15:22:27+01:00</time>
      </trkpt>
      <trkpt lat="43.45093" lon="3.76233">
        <ele>1</ele>
        <time>2021-11-27T15:22:44+01:00</time>
      </trkpt>
      <trkpt lat="43.45078" lon="3.76217">
        <ele>1</ele>
        <time>2021-11-27T15:23:00+01:00</time>
      </trkpt>
      <trkpt lat="43.45065" lon="3.76197">
        <ele>1</ele>
        <time>2021-11-27T15:23:18+01:00</time>
      </trkpt>
      <trkpt lat="43.4505" lon="3.7618">
        <ele>1</ele>
        <time>2021-11-27T15:23:36+01:00</time>
      </trkpt>
      <trkpt lat="43.45034" lon="3.76163">
        <ele>1</ele>
        <time>2021-11-27T15:23:53+01:00</time>
      </trkpt>
      <trkpt lat="43.4502" lon="3.76146">
        <ele>1</ele>
        <time>2021-11-27T15:24:10+01:00</time>
      </trkpt>
      <trkpt lat="43.45008" lon="3.76128">
        <ele>1</ele>
        <time>2021-11-27T15:24:26+01:00</time>
      </trkpt>
      <trkpt lat="43.4501" lon="3.76103">
        <ele>1</ele>
        <time>2021-11-27T15:24:43+01:00</time>
      </trkpt>
      <trkpt lat="43.45021" lon="3.76081">
        <ele>1</ele>
        <time>2021-11-27T15:25:02+01:00</time>
      </trkpt>
      <trkpt lat="43.45015" lon="3.76057">
        <ele>1</ele>
        <time>2021-11-27T15:25:16+01:00</time>
      </trkpt>
      <trkpt lat="43.44998" lon="3.76048">
        <ele>1</ele>
        <time>2021-11-27T15:25:28+01:00</time>
      </trkpt>
      <trkpt lat="43.4498" lon="3.76041">
        <ele>1</ele>
        <time>2021-11-27T15:25:45+01:00</time>
      </trkpt>
      <trkpt lat="43.44962" lon="3.76034">
        <ele>1</ele>
        <time>2021-11-27T15:26:03+01:00</time>
      </trkpt>
      <trkpt lat="43.44944" lon="3.76027">
        <ele>1</ele>
        <time>2021-11-27T15:26:20+01:00</time>
      </trkpt>
      <trkpt lat="43.44926" lon="3.7602">
        <ele>1</ele>
        <time>2021-11-27T15:26:35+01:00</time>
      </trkpt>
      <trkpt lat="43.44907" lon="3.76011">
        <ele>1</ele>
        <time>2021-11-27T15:26:48+01:00</time>
      </trkpt>
      <trkpt lat="43.44888" lon="3.76007">
        <ele>1</ele>
        <time>2021-11-27T15:27:03+01:00</time>
      </trkpt>
      <trkpt lat="43.4487" lon="3.76006">
        <ele>1</ele>
        <time>2021-11-27T15:27:18+01:00</time>
      </trkpt>
      <trkpt lat="43.44851" lon="3.75999">
        <ele>1</ele>
        <time>2021-11-27T15:27:33+01:00</time>
      </trkpt>
      <trkpt lat="43.44832" lon="3.75992">
        <ele>1</ele>
        <time>2021-11-27T15:27:49+01:00</time>
      </trkpt>
      <trkpt lat="43.44813" lon="3.75985">
        <ele>1</ele>
        <time>2021-11-27T15:28:06+01:00</time>
      </trkpt>
      <trkpt lat="43.44795" lon="3.75978">
        <ele>1</ele>
        <time>2021-11-27T15:28:21+01:00</time>
      </trkpt>
      <trkpt lat="43.44776" lon="3.75971">
        <ele>1</ele>
        <time>2021-11-27T15:28:37+01:00</time>
      </trkpt>
      <trkpt lat="43.44758" lon="3.75968">
        <ele>1</ele>
        <time>2021-11-27T15:28:53+01:00</time>
      </trkpt>
      <trkpt lat="43.44739" lon="3.75962">
        <ele>1</ele>
        <time>2021-11-27T15:29:09+01:00</time>
      </trkpt>
      <trkpt lat="43.44721" lon="3.75959">
        <ele>1</ele>
        <time>2021-11-27T15:29:25+01:00</time>
      </trkpt>
      <trkpt lat="43.44701" lon="3.75955">
        <ele>1</ele>
        <time>2021-11-27T15:29:43+01:00</time>
      </trkpt>
      <trkpt lat="43.44683" lon="3.7595">
        <ele>1</ele>
        <time>2021-11-27T15:30:00+01:00</time>
      </trkpt>
      <trkpt lat="43.44665" lon="3.75948">
        <ele>1</ele>
        <time>2021-11-27T15:30:15+01:00</time>
      </trkpt>
      <trkpt lat="43.44647" lon="3.75944">
        <ele>1</ele>
        <time>2021-11-27T15:30:31+01:00</time>
      </trkpt>
      <trkpt lat="43.44628" lon="3.75941">
        <ele>1</ele>
        <time>2021-11-27T15:30:47+01:00</time>
      </trkpt>
      <trkpt lat="43.44609" lon="3.75938">
        <ele>1</ele>
        <time>2021-11-27T15:31:02+01:00</time>
      </trkpt>
      <trkpt lat="43.44589" lon="3.75935">
        <ele>1</ele>
        <time>2021-11-27T15:31:19+01:00</time>
      </trkpt>
      <trkpt lat="43.44571" lon="3.7593">
        <ele>1</ele>
        <time>2021-11-27T15:31:34+01:00</time>
      </trkpt>
      <trkpt lat="43.44552" lon="3.75933">
        <ele>1</ele>
        <time>2021-11-27T15:31:49+01:00</time>
      </trkpt>
      <trkpt lat="43.44547" lon="3.75921">
        <ele>1</ele>
        <time>2021-11-27T15:32:00+01:00</time>
      </trkpt>
      <trkpt lat="43.44553" lon="3.75896">
        <ele>1</ele>
        <time>2021-11-27T15:32:20+01:00</time>
      </trkpt>
      <trkpt lat="43.44555" lon="3.7587">
        <ele>1</ele>
        <time>2021-11-27T15:32:32+01:00</time>
      </trkpt>
      <trkpt lat="43.44544" lon="3.75853">
        <ele>1</ele>
        <time>2021-11-27T15:32:50+01:00</time>
      </trkpt>
      <trkpt lat="43.44525" lon="3.7585">
        <ele>1</ele>
        <time>2021-11-27T15:33:06+01:00</time>
      </trkpt>
      <trkpt lat="43.44516" lon="3.75859">
        <ele>1</ele>
        <time>2021-11-27T15:33:15+01:00</time>
      </trkpt>
    </trkseg>
  </trk>
</gpx>